<?xml version="1.0" encoding="UTF-8" standalone="no" ?>
<gpx xmlns="http://www.topografix.com/GPX/1/1" xmlns:xsi="http://www.w3.org/2001/XMLSchema-instance" xsi:schemaLocation="http://www.topografix.com/GPX/1/1 http://www.topografix.com/GPX/1/1/gpx.xsd" version="1.1" creator="VisuGPX - https://www.visugpx.com">
  <metadata>
    <name>balade en VTT</name>
    <desc><![CDATA[Petite balade en VTT sympathique en fin de journée]]></desc>
  </metadata>
  <trk>
    <name><![CDATA[balade en VTT_1]]></name>
    <trkseg>
      <trkpt lat="47.96341" lon="7.30494">
        <ele>274.36496</ele>
        <time>2017-03-29T16:23:09Z</time>
      </trkpt>
      <trkpt lat="47.96336" lon="7.305">
        <ele>253.73988</ele>
        <time>2017-03-29T16:23:15Z</time>
      </trkpt>
      <trkpt lat="47.96335" lon="7.30501">
        <ele>257.407</ele>
        <time>2017-03-29T16:23:20Z</time>
      </trkpt>
      <trkpt lat="47.96347" lon="7.30508">
        <ele>256.7607</ele>
        <time>2017-03-29T16:23:26Z</time>
      </trkpt>
      <trkpt lat="47.96369" lon="7.3052">
        <ele>252.69247</ele>
        <time>2017-03-29T16:23:31Z</time>
      </trkpt>
      <trkpt lat="47.96396" lon="7.30525">
        <ele>248.06264</ele>
        <time>2017-03-29T16:23:36Z</time>
      </trkpt>
      <trkpt lat="47.96432" lon="7.30534">
        <ele>246.13295</ele>
        <time>2017-03-29T16:23:42Z</time>
      </trkpt>
      <trkpt lat="47.9647" lon="7.30543">
        <ele>245.86467</ele>
        <time>2017-03-29T16:23:48Z</time>
      </trkpt>
      <trkpt lat="47.96509" lon="7.30555">
        <ele>247.20007</ele>
        <time>2017-03-29T16:23:54Z</time>
      </trkpt>
      <trkpt lat="47.96539" lon="7.30564">
        <ele>248.052</ele>
        <time>2017-03-29T16:23:59Z</time>
      </trkpt>
      <trkpt lat="47.9656" lon="7.30576">
        <ele>248.17511</ele>
        <time>2017-03-29T16:24:04Z</time>
      </trkpt>
      <trkpt lat="47.96566" lon="7.30576">
        <ele>248.12784</ele>
        <time>2017-03-29T16:24:10Z</time>
      </trkpt>
      <trkpt lat="47.96575" lon="7.30578">
        <ele>248.2051</ele>
        <time>2017-03-29T16:24:16Z</time>
      </trkpt>
      <trkpt lat="47.96594" lon="7.30569">
        <ele>248.18466</ele>
        <time>2017-03-29T16:24:22Z</time>
      </trkpt>
      <trkpt lat="47.96602" lon="7.30531">
        <ele>247.93755</ele>
        <time>2017-03-29T16:24:28Z</time>
      </trkpt>
      <trkpt lat="47.96603" lon="7.30491">
        <ele>247.77383</ele>
        <time>2017-03-29T16:24:34Z</time>
      </trkpt>
      <trkpt lat="47.96604" lon="7.30445">
        <ele>245.13087</ele>
        <time>2017-03-29T16:24:40Z</time>
      </trkpt>
      <trkpt lat="47.96608" lon="7.30403">
        <ele>243.94012</ele>
        <time>2017-03-29T16:24:46Z</time>
      </trkpt>
      <trkpt lat="47.96612" lon="7.30359">
        <ele>240.6687</ele>
        <time>2017-03-29T16:24:52Z</time>
      </trkpt>
      <trkpt lat="47.96618" lon="7.30314">
        <ele>237.75974</ele>
        <time>2017-03-29T16:24:58Z</time>
      </trkpt>
      <trkpt lat="47.96624" lon="7.30281">
        <ele>236.50916</ele>
        <time>2017-03-29T16:25:03Z</time>
      </trkpt>
      <trkpt lat="47.96648" lon="7.30258">
        <ele>235.97699</ele>
        <time>2017-03-29T16:25:09Z</time>
      </trkpt>
      <trkpt lat="47.96684" lon="7.30246">
        <ele>241.06694</ele>
        <time>2017-03-29T16:25:15Z</time>
      </trkpt>
      <trkpt lat="47.96722" lon="7.30253">
        <ele>244.56725</ele>
        <time>2017-03-29T16:25:21Z</time>
      </trkpt>
      <trkpt lat="47.9673" lon="7.30234">
        <ele>247.24161</ele>
        <time>2017-03-29T16:25:26Z</time>
      </trkpt>
      <trkpt lat="47.96718" lon="7.30206">
        <ele>247.7094</ele>
        <time>2017-03-29T16:25:32Z</time>
      </trkpt>
      <trkpt lat="47.96732" lon="7.30202">
        <ele>248.29346</ele>
        <time>2017-03-29T16:25:38Z</time>
      </trkpt>
      <trkpt lat="47.96758" lon="7.30213">
        <ele>248.52722</ele>
        <time>2017-03-29T16:25:44Z</time>
      </trkpt>
      <trkpt lat="47.96774" lon="7.30217">
        <ele>248.62979</ele>
        <time>2017-03-29T16:25:49Z</time>
      </trkpt>
      <trkpt lat="47.96786" lon="7.3022">
        <ele>248.60349</ele>
        <time>2017-03-29T16:25:55Z</time>
      </trkpt>
      <trkpt lat="47.96796" lon="7.30222">
        <ele>248.03624</ele>
        <time>2017-03-29T16:26:00Z</time>
      </trkpt>
      <trkpt lat="47.96826" lon="7.30221">
        <ele>240.64755</ele>
        <time>2017-03-29T16:26:06Z</time>
      </trkpt>
      <trkpt lat="47.96855" lon="7.30219">
        <ele>240.7377</ele>
        <time>2017-03-29T16:26:12Z</time>
      </trkpt>
      <trkpt lat="47.9688" lon="7.30208">
        <ele>240.92805</ele>
        <time>2017-03-29T16:26:18Z</time>
      </trkpt>
      <trkpt lat="47.96902" lon="7.30198">
        <ele>240.09433</ele>
        <time>2017-03-29T16:26:24Z</time>
      </trkpt>
      <trkpt lat="47.96926" lon="7.30171">
        <ele>243.64188</ele>
        <time>2017-03-29T16:26:29Z</time>
      </trkpt>
      <trkpt lat="47.96934" lon="7.30101">
        <ele>251.65706</ele>
        <time>2017-03-29T16:26:35Z</time>
      </trkpt>
      <trkpt lat="47.96904" lon="7.30063">
        <ele>251.03893</ele>
        <time>2017-03-29T16:26:41Z</time>
      </trkpt>
      <trkpt lat="47.96886" lon="7.30033">
        <ele>253.40825</ele>
        <time>2017-03-29T16:26:46Z</time>
      </trkpt>
      <trkpt lat="47.96874" lon="7.29998">
        <ele>250.03452</ele>
        <time>2017-03-29T16:26:52Z</time>
      </trkpt>
      <trkpt lat="47.96864" lon="7.29969">
        <ele>250.58153</ele>
        <time>2017-03-29T16:26:58Z</time>
      </trkpt>
      <trkpt lat="47.96861" lon="7.2994">
        <ele>250.72595</ele>
        <time>2017-03-29T16:27:03Z</time>
      </trkpt>
      <trkpt lat="47.96865" lon="7.29905">
        <ele>250.73386</ele>
        <time>2017-03-29T16:27:09Z</time>
      </trkpt>
      <trkpt lat="47.9687" lon="7.29871">
        <ele>249.26291</ele>
        <time>2017-03-29T16:27:15Z</time>
      </trkpt>
      <trkpt lat="47.96874" lon="7.29836">
        <ele>246.39748</ele>
        <time>2017-03-29T16:27:20Z</time>
      </trkpt>
      <trkpt lat="47.9688" lon="7.2979">
        <ele>246.03706</ele>
        <time>2017-03-29T16:27:26Z</time>
      </trkpt>
      <trkpt lat="47.96885" lon="7.29745">
        <ele>246.96144</ele>
        <time>2017-03-29T16:27:32Z</time>
      </trkpt>
      <trkpt lat="47.9689" lon="7.29708">
        <ele>249.12125</ele>
        <time>2017-03-29T16:27:37Z</time>
      </trkpt>
      <trkpt lat="47.96895" lon="7.29676">
        <ele>249.56407</ele>
        <time>2017-03-29T16:27:42Z</time>
      </trkpt>
      <trkpt lat="47.96901" lon="7.29639">
        <ele>250.33937</ele>
        <time>2017-03-29T16:27:48Z</time>
      </trkpt>
      <trkpt lat="47.96908" lon="7.29609">
        <ele>245.72812</ele>
        <time>2017-03-29T16:27:53Z</time>
      </trkpt>
      <trkpt lat="47.96911" lon="7.29587">
        <ele>243.14049</ele>
        <time>2017-03-29T16:27:58Z</time>
      </trkpt>
      <trkpt lat="47.96914" lon="7.29554">
        <ele>242.01923</ele>
        <time>2017-03-29T16:28:04Z</time>
      </trkpt>
      <trkpt lat="47.96915" lon="7.29521">
        <ele>243.57857</ele>
        <time>2017-03-29T16:28:09Z</time>
      </trkpt>
      <trkpt lat="47.96917" lon="7.29489">
        <ele>245.86012</ele>
        <time>2017-03-29T16:28:15Z</time>
      </trkpt>
      <trkpt lat="47.96918" lon="7.29463">
        <ele>246.78937</ele>
        <time>2017-03-29T16:28:20Z</time>
      </trkpt>
      <trkpt lat="47.96914" lon="7.29426">
        <ele>251.96936</ele>
        <time>2017-03-29T16:28:26Z</time>
      </trkpt>
      <trkpt lat="47.96915" lon="7.294">
        <ele>253.13742</ele>
        <time>2017-03-29T16:28:32Z</time>
      </trkpt>
      <trkpt lat="47.96922" lon="7.29383">
        <ele>253.5498</ele>
        <time>2017-03-29T16:28:37Z</time>
      </trkpt>
      <trkpt lat="47.96929" lon="7.29372">
        <ele>254.3363</ele>
        <time>2017-03-29T16:28:43Z</time>
      </trkpt>
      <trkpt lat="47.96932" lon="7.29381">
        <ele>255.70473</ele>
        <time>2017-03-29T16:28:48Z</time>
      </trkpt>
      <trkpt lat="47.96934" lon="7.29397">
        <ele>257.12973</ele>
        <time>2017-03-29T16:28:53Z</time>
      </trkpt>
      <trkpt lat="47.96933" lon="7.2944">
        <ele>264.2986</ele>
        <time>2017-03-29T16:28:59Z</time>
      </trkpt>
      <trkpt lat="47.96934" lon="7.2948">
        <ele>264.2571</ele>
        <time>2017-03-29T16:29:04Z</time>
      </trkpt>
      <trkpt lat="47.96933" lon="7.29487">
        <ele>263.81418</ele>
        <time>2017-03-29T16:29:10Z</time>
      </trkpt>
      <trkpt lat="47.96934" lon="7.29483">
        <ele>263.45224</ele>
        <time>2017-03-29T16:29:16Z</time>
      </trkpt>
      <trkpt lat="47.96934" lon="7.29464">
        <ele>263.16776</ele>
        <time>2017-03-29T16:29:22Z</time>
      </trkpt>
      <trkpt lat="47.96931" lon="7.29441">
        <ele>263.21725</ele>
        <time>2017-03-29T16:29:28Z</time>
      </trkpt>
      <trkpt lat="47.96929" lon="7.29417">
        <ele>263.2159</ele>
        <time>2017-03-29T16:29:34Z</time>
      </trkpt>
      <trkpt lat="47.96932" lon="7.29398">
        <ele>262.95892</ele>
        <time>2017-03-29T16:29:39Z</time>
      </trkpt>
      <trkpt lat="47.96938" lon="7.29384">
        <ele>263.5839</ele>
        <time>2017-03-29T16:29:45Z</time>
      </trkpt>
      <trkpt lat="47.96956" lon="7.29385">
        <ele>263.9722</ele>
        <time>2017-03-29T16:29:51Z</time>
      </trkpt>
      <trkpt lat="47.96973" lon="7.29379">
        <ele>264.51227</ele>
        <time>2017-03-29T16:29:57Z</time>
      </trkpt>
      <trkpt lat="47.96982" lon="7.2937">
        <ele>265.8367</ele>
        <time>2017-03-29T16:30:03Z</time>
      </trkpt>
      <trkpt lat="47.96985" lon="7.29366">
        <ele>266.94348</ele>
        <time>2017-03-29T16:30:09Z</time>
      </trkpt>
      <trkpt lat="47.96985" lon="7.29363">
        <ele>267.60788</ele>
        <time>2017-03-29T16:30:15Z</time>
      </trkpt>
      <trkpt lat="47.97002" lon="7.29356">
        <ele>269.91898</ele>
        <time>2017-03-29T16:30:20Z</time>
      </trkpt>
      <trkpt lat="47.97033" lon="7.29341">
        <ele>273.07388</ele>
        <time>2017-03-29T16:30:26Z</time>
      </trkpt>
      <trkpt lat="47.97053" lon="7.29326">
        <ele>274.58737</ele>
        <time>2017-03-29T16:30:31Z</time>
      </trkpt>
      <trkpt lat="47.97057" lon="7.29304">
        <ele>274.83</ele>
        <time>2017-03-29T16:30:37Z</time>
      </trkpt>
      <trkpt lat="47.9706" lon="7.29312">
        <ele>274.45804</ele>
        <time>2017-03-29T16:30:42Z</time>
      </trkpt>
      <trkpt lat="47.97078" lon="7.29311">
        <ele>273.36414</ele>
        <time>2017-03-29T16:30:48Z</time>
      </trkpt>
      <trkpt lat="47.971" lon="7.29307">
        <ele>272.97577</ele>
        <time>2017-03-29T16:30:54Z</time>
      </trkpt>
      <trkpt lat="47.97109" lon="7.2929">
        <ele>272.9909</ele>
        <time>2017-03-29T16:30:59Z</time>
      </trkpt>
      <trkpt lat="47.97111" lon="7.29269">
        <ele>273.0876</ele>
        <time>2017-03-29T16:31:05Z</time>
      </trkpt>
      <trkpt lat="47.97116" lon="7.29267">
        <ele>273.16742</ele>
        <time>2017-03-29T16:31:10Z</time>
      </trkpt>
      <trkpt lat="47.97129" lon="7.29266">
        <ele>273.1892</ele>
        <time>2017-03-29T16:31:15Z</time>
      </trkpt>
      <trkpt lat="47.97152" lon="7.29265">
        <ele>273.99268</ele>
        <time>2017-03-29T16:31:21Z</time>
      </trkpt>
      <trkpt lat="47.97177" lon="7.29266">
        <ele>272.67163</ele>
        <time>2017-03-29T16:31:27Z</time>
      </trkpt>
      <trkpt lat="47.97196" lon="7.29266">
        <ele>272.08347</ele>
        <time>2017-03-29T16:31:32Z</time>
      </trkpt>
      <trkpt lat="47.97216" lon="7.29268">
        <ele>271.6787</ele>
        <time>2017-03-29T16:31:38Z</time>
      </trkpt>
      <trkpt lat="47.97235" lon="7.29258">
        <ele>270.45602</ele>
        <time>2017-03-29T16:31:43Z</time>
      </trkpt>
      <trkpt lat="47.97247" lon="7.29236">
        <ele>270.48886</ele>
        <time>2017-03-29T16:31:49Z</time>
      </trkpt>
      <trkpt lat="47.9726" lon="7.29215">
        <ele>270.61432</ele>
        <time>2017-03-29T16:31:55Z</time>
      </trkpt>
      <trkpt lat="47.97276" lon="7.29199">
        <ele>271.5572</ele>
        <time>2017-03-29T16:32:01Z</time>
      </trkpt>
      <trkpt lat="47.97295" lon="7.29201">
        <ele>272.3923</ele>
        <time>2017-03-29T16:32:07Z</time>
      </trkpt>
      <trkpt lat="47.97315" lon="7.29197">
        <ele>278.1366</ele>
        <time>2017-03-29T16:32:13Z</time>
      </trkpt>
      <trkpt lat="47.97343" lon="7.2919">
        <ele>280.8826</ele>
        <time>2017-03-29T16:32:19Z</time>
      </trkpt>
      <trkpt lat="47.97367" lon="7.29176">
        <ele>279.8456</ele>
        <time>2017-03-29T16:32:25Z</time>
      </trkpt>
      <trkpt lat="47.97394" lon="7.2915">
        <ele>278.68497</ele>
        <time>2017-03-29T16:32:31Z</time>
      </trkpt>
      <trkpt lat="47.97434" lon="7.29109">
        <ele>277.41022</ele>
        <time>2017-03-29T16:32:37Z</time>
      </trkpt>
      <trkpt lat="47.97468" lon="7.29074">
        <ele>277.9513</ele>
        <time>2017-03-29T16:32:42Z</time>
      </trkpt>
      <trkpt lat="47.97515" lon="7.29052">
        <ele>271.6829</ele>
        <time>2017-03-29T16:32:48Z</time>
      </trkpt>
      <trkpt lat="47.97555" lon="7.29039">
        <ele>264.15533</ele>
        <time>2017-03-29T16:32:54Z</time>
      </trkpt>
      <trkpt lat="47.97575" lon="7.29026">
        <ele>262.4513</ele>
        <time>2017-03-29T16:33:00Z</time>
      </trkpt>
      <trkpt lat="47.97598" lon="7.29011">
        <ele>261.2974</ele>
        <time>2017-03-29T16:33:06Z</time>
      </trkpt>
      <trkpt lat="47.97627" lon="7.29002">
        <ele>259.2685</ele>
        <time>2017-03-29T16:33:12Z</time>
      </trkpt>
      <trkpt lat="47.97646" lon="7.28998">
        <ele>258.30588</ele>
        <time>2017-03-29T16:33:17Z</time>
      </trkpt>
      <trkpt lat="47.9767" lon="7.28991">
        <ele>258.41766</ele>
        <time>2017-03-29T16:33:23Z</time>
      </trkpt>
      <trkpt lat="47.97692" lon="7.28983">
        <ele>260.35733</ele>
        <time>2017-03-29T16:33:28Z</time>
      </trkpt>
      <trkpt lat="47.97713" lon="7.28973">
        <ele>261.53418</ele>
        <time>2017-03-29T16:33:33Z</time>
      </trkpt>
      <trkpt lat="47.97741" lon="7.28961">
        <ele>265.09836</ele>
        <time>2017-03-29T16:33:39Z</time>
      </trkpt>
      <trkpt lat="47.97772" lon="7.28948">
        <ele>265.19827</ele>
        <time>2017-03-29T16:33:45Z</time>
      </trkpt>
      <trkpt lat="47.97803" lon="7.28939">
        <ele>263.59375</ele>
        <time>2017-03-29T16:33:51Z</time>
      </trkpt>
      <trkpt lat="47.97832" lon="7.28932">
        <ele>262.60004</ele>
        <time>2017-03-29T16:33:57Z</time>
      </trkpt>
      <trkpt lat="47.97855" lon="7.28926">
        <ele>263.48904</ele>
        <time>2017-03-29T16:34:02Z</time>
      </trkpt>
      <trkpt lat="47.97878" lon="7.2892">
        <ele>265.34686</ele>
        <time>2017-03-29T16:34:07Z</time>
      </trkpt>
      <trkpt lat="47.97905" lon="7.28913">
        <ele>267.20056</ele>
        <time>2017-03-29T16:34:13Z</time>
      </trkpt>
      <trkpt lat="47.97931" lon="7.28909">
        <ele>269.08444</ele>
        <time>2017-03-29T16:34:19Z</time>
      </trkpt>
      <trkpt lat="47.97958" lon="7.28906">
        <ele>269.88556</ele>
        <time>2017-03-29T16:34:25Z</time>
      </trkpt>
      <trkpt lat="47.97983" lon="7.28903">
        <ele>269.91153</ele>
        <time>2017-03-29T16:34:31Z</time>
      </trkpt>
      <trkpt lat="47.98007" lon="7.28903">
        <ele>269.13895</ele>
        <time>2017-03-29T16:34:37Z</time>
      </trkpt>
      <trkpt lat="47.98033" lon="7.28901">
        <ele>269.45605</ele>
        <time>2017-03-29T16:34:43Z</time>
      </trkpt>
      <trkpt lat="47.98052" lon="7.28898">
        <ele>271.05292</ele>
        <time>2017-03-29T16:34:48Z</time>
      </trkpt>
      <trkpt lat="47.9808" lon="7.28887">
        <ele>270.14743</ele>
        <time>2017-03-29T16:34:54Z</time>
      </trkpt>
      <trkpt lat="47.98105" lon="7.28873">
        <ele>269.30746</ele>
        <time>2017-03-29T16:35:00Z</time>
      </trkpt>
      <trkpt lat="47.98127" lon="7.28863">
        <ele>269.24365</ele>
        <time>2017-03-29T16:35:06Z</time>
      </trkpt>
      <trkpt lat="47.98149" lon="7.28864">
        <ele>269.46298</ele>
        <time>2017-03-29T16:35:11Z</time>
      </trkpt>
      <trkpt lat="47.98173" lon="7.28871">
        <ele>269.87878</ele>
        <time>2017-03-29T16:35:17Z</time>
      </trkpt>
      <trkpt lat="47.98197" lon="7.28871">
        <ele>267.30484</ele>
        <time>2017-03-29T16:35:23Z</time>
      </trkpt>
      <trkpt lat="47.98222" lon="7.28875">
        <ele>268.2544</ele>
        <time>2017-03-29T16:35:29Z</time>
      </trkpt>
      <trkpt lat="47.98244" lon="7.28881">
        <ele>268.27933</ele>
        <time>2017-03-29T16:35:34Z</time>
      </trkpt>
      <trkpt lat="47.98259" lon="7.28886">
        <ele>267.40982</ele>
        <time>2017-03-29T16:35:40Z</time>
      </trkpt>
      <trkpt lat="47.98264" lon="7.28847">
        <ele>267.6962</ele>
        <time>2017-03-29T16:35:45Z</time>
      </trkpt>
      <trkpt lat="47.98272" lon="7.28812">
        <ele>264.53833</ele>
        <time>2017-03-29T16:35:51Z</time>
      </trkpt>
      <trkpt lat="47.98277" lon="7.28781">
        <ele>264.60065</ele>
        <time>2017-03-29T16:35:57Z</time>
      </trkpt>
      <trkpt lat="47.9828" lon="7.28764">
        <ele>264.6608</ele>
        <time>2017-03-29T16:36:02Z</time>
      </trkpt>
      <trkpt lat="47.98298" lon="7.28749">
        <ele>265.50793</ele>
        <time>2017-03-29T16:36:08Z</time>
      </trkpt>
      <trkpt lat="47.98312" lon="7.28733">
        <ele>266.77008</ele>
        <time>2017-03-29T16:36:14Z</time>
      </trkpt>
      <trkpt lat="47.98323" lon="7.28714">
        <ele>267.23907</ele>
        <time>2017-03-29T16:36:19Z</time>
      </trkpt>
      <trkpt lat="47.98345" lon="7.28693">
        <ele>268.29486</ele>
        <time>2017-03-29T16:36:25Z</time>
      </trkpt>
      <trkpt lat="47.98356" lon="7.28693">
        <ele>268.10956</ele>
        <time>2017-03-29T16:36:30Z</time>
      </trkpt>
      <trkpt lat="47.98374" lon="7.2867">
        <ele>268.24637</ele>
        <time>2017-03-29T16:36:36Z</time>
      </trkpt>
      <trkpt lat="47.98389" lon="7.28641">
        <ele>268.75757</ele>
        <time>2017-03-29T16:36:42Z</time>
      </trkpt>
      <trkpt lat="47.98397" lon="7.28615">
        <ele>271.82477</ele>
        <time>2017-03-29T16:36:48Z</time>
      </trkpt>
      <trkpt lat="47.98398" lon="7.2859">
        <ele>275.05487</ele>
        <time>2017-03-29T16:36:53Z</time>
      </trkpt>
      <trkpt lat="47.98395" lon="7.28565">
        <ele>275.58966</ele>
        <time>2017-03-29T16:36:59Z</time>
      </trkpt>
      <trkpt lat="47.98399" lon="7.28539">
        <ele>275.9273</ele>
        <time>2017-03-29T16:37:04Z</time>
      </trkpt>
      <trkpt lat="47.98404" lon="7.28511">
        <ele>278.27914</ele>
        <time>2017-03-29T16:37:10Z</time>
      </trkpt>
      <trkpt lat="47.9841" lon="7.28485">
        <ele>279.00113</ele>
        <time>2017-03-29T16:37:16Z</time>
      </trkpt>
      <trkpt lat="47.98413" lon="7.28469">
        <ele>280.12665</ele>
        <time>2017-03-29T16:37:21Z</time>
      </trkpt>
      <trkpt lat="47.9842" lon="7.28438">
        <ele>280.68842</ele>
        <time>2017-03-29T16:37:26Z</time>
      </trkpt>
      <trkpt lat="47.98422" lon="7.28407">
        <ele>282.40482</ele>
        <time>2017-03-29T16:37:32Z</time>
      </trkpt>
      <trkpt lat="47.98422" lon="7.28381">
        <ele>283.65408</ele>
        <time>2017-03-29T16:37:37Z</time>
      </trkpt>
      <trkpt lat="47.9842" lon="7.28353">
        <ele>284.68365</ele>
        <time>2017-03-29T16:37:43Z</time>
      </trkpt>
      <trkpt lat="47.98418" lon="7.28324">
        <ele>285.4055</ele>
        <time>2017-03-29T16:37:49Z</time>
      </trkpt>
      <trkpt lat="47.9842" lon="7.28307">
        <ele>286.38577</ele>
        <time>2017-03-29T16:37:54Z</time>
      </trkpt>
      <trkpt lat="47.9842" lon="7.28287">
        <ele>287.38882</ele>
        <time>2017-03-29T16:38:00Z</time>
      </trkpt>
      <trkpt lat="47.98419" lon="7.28272">
        <ele>288.1721</ele>
        <time>2017-03-29T16:38:05Z</time>
      </trkpt>
      <trkpt lat="47.98417" lon="7.28257">
        <ele>289.71976</ele>
        <time>2017-03-29T16:38:11Z</time>
      </trkpt>
      <trkpt lat="47.98417" lon="7.2824">
        <ele>291.90555</ele>
        <time>2017-03-29T16:38:17Z</time>
      </trkpt>
      <trkpt lat="47.98416" lon="7.2822">
        <ele>293.48495</ele>
        <time>2017-03-29T16:38:23Z</time>
      </trkpt>
      <trkpt lat="47.98418" lon="7.28209">
        <ele>294.5232</ele>
        <time>2017-03-29T16:38:28Z</time>
      </trkpt>
      <trkpt lat="47.98417" lon="7.28195">
        <ele>295.3486</ele>
        <time>2017-03-29T16:38:34Z</time>
      </trkpt>
      <trkpt lat="47.98414" lon="7.28184">
        <ele>296.17386</ele>
        <time>2017-03-29T16:38:39Z</time>
      </trkpt>
      <trkpt lat="47.98416" lon="7.28172">
        <ele>296.90335</ele>
        <time>2017-03-29T16:38:45Z</time>
      </trkpt>
      <trkpt lat="47.98416" lon="7.28161">
        <ele>297.5187</ele>
        <time>2017-03-29T16:38:50Z</time>
      </trkpt>
      <trkpt lat="47.98418" lon="7.28152">
        <ele>298.5631</ele>
        <time>2017-03-29T16:38:56Z</time>
      </trkpt>
      <trkpt lat="47.98418" lon="7.28138">
        <ele>299.5784</ele>
        <time>2017-03-29T16:39:02Z</time>
      </trkpt>
      <trkpt lat="47.9842" lon="7.28123">
        <ele>300.6859</ele>
        <time>2017-03-29T16:39:07Z</time>
      </trkpt>
      <trkpt lat="47.98422" lon="7.28108">
        <ele>301.701</ele>
        <time>2017-03-29T16:39:12Z</time>
      </trkpt>
      <trkpt lat="47.98424" lon="7.28091">
        <ele>302.95544</ele>
        <time>2017-03-29T16:39:18Z</time>
      </trkpt>
      <trkpt lat="47.98426" lon="7.28077">
        <ele>304.36584</ele>
        <time>2017-03-29T16:39:23Z</time>
      </trkpt>
      <trkpt lat="47.98426" lon="7.28063">
        <ele>305.58176</ele>
        <time>2017-03-29T16:39:28Z</time>
      </trkpt>
      <trkpt lat="47.98427" lon="7.28046">
        <ele>307.18805</ele>
        <time>2017-03-29T16:39:34Z</time>
      </trkpt>
      <trkpt lat="47.9843" lon="7.28029">
        <ele>308.6643</ele>
        <time>2017-03-29T16:39:40Z</time>
      </trkpt>
      <trkpt lat="47.9843" lon="7.28016">
        <ele>309.89368</ele>
        <time>2017-03-29T16:39:46Z</time>
      </trkpt>
      <trkpt lat="47.9843" lon="7.27997">
        <ele>310.6421</ele>
        <time>2017-03-29T16:39:51Z</time>
      </trkpt>
      <trkpt lat="47.98431" lon="7.27979">
        <ele>311.34534</ele>
        <time>2017-03-29T16:39:57Z</time>
      </trkpt>
      <trkpt lat="47.98429" lon="7.27961">
        <ele>312.525</ele>
        <time>2017-03-29T16:40:03Z</time>
      </trkpt>
      <trkpt lat="47.98428" lon="7.27946">
        <ele>313.65155</ele>
        <time>2017-03-29T16:40:08Z</time>
      </trkpt>
      <trkpt lat="47.98427" lon="7.27928">
        <ele>315.06573</ele>
        <time>2017-03-29T16:40:14Z</time>
      </trkpt>
      <trkpt lat="47.98428" lon="7.27914">
        <ele>316.22842</ele>
        <time>2017-03-29T16:40:19Z</time>
      </trkpt>
      <trkpt lat="47.98429" lon="7.27898">
        <ele>317.7441</ele>
        <time>2017-03-29T16:40:25Z</time>
      </trkpt>
      <trkpt lat="47.98429" lon="7.27882">
        <ele>319.19287</ele>
        <time>2017-03-29T16:40:31Z</time>
      </trkpt>
      <trkpt lat="47.98431" lon="7.27868">
        <ele>320.31714</ele>
        <time>2017-03-29T16:40:36Z</time>
      </trkpt>
      <trkpt lat="47.98431" lon="7.27851">
        <ele>321.5456</ele>
        <time>2017-03-29T16:40:42Z</time>
      </trkpt>
      <trkpt lat="47.98433" lon="7.27839">
        <ele>323.0055</ele>
        <time>2017-03-29T16:40:48Z</time>
      </trkpt>
      <trkpt lat="47.98442" lon="7.27829">
        <ele>324.20078</ele>
        <time>2017-03-29T16:40:53Z</time>
      </trkpt>
      <trkpt lat="47.98445" lon="7.27825">
        <ele>325.78635</ele>
        <time>2017-03-29T16:40:58Z</time>
      </trkpt>
      <trkpt lat="47.98446" lon="7.27823">
        <ele>327.2764</ele>
        <time>2017-03-29T16:41:03Z</time>
      </trkpt>
      <trkpt lat="47.98448" lon="7.27816">
        <ele>328.99112</ele>
        <time>2017-03-29T16:41:09Z</time>
      </trkpt>
      <trkpt lat="47.98454" lon="7.27806">
        <ele>331.00693</ele>
        <time>2017-03-29T16:41:15Z</time>
      </trkpt>
      <trkpt lat="47.98462" lon="7.27796">
        <ele>332.74268</ele>
        <time>2017-03-29T16:41:20Z</time>
      </trkpt>
      <trkpt lat="47.9847" lon="7.27787">
        <ele>335.3039</ele>
        <time>2017-03-29T16:41:26Z</time>
      </trkpt>
      <trkpt lat="47.98475" lon="7.27778">
        <ele>337.34622</ele>
        <time>2017-03-29T16:41:31Z</time>
      </trkpt>
      <trkpt lat="47.98484" lon="7.2776">
        <ele>339.47446</ele>
        <time>2017-03-29T16:41:37Z</time>
      </trkpt>
      <trkpt lat="47.98491" lon="7.27748">
        <ele>341.06512</ele>
        <time>2017-03-29T16:41:43Z</time>
      </trkpt>
      <trkpt lat="47.98491" lon="7.2774">
        <ele>343.20444</ele>
        <time>2017-03-29T16:41:49Z</time>
      </trkpt>
      <trkpt lat="47.98491" lon="7.27737">
        <ele>344.25162</ele>
        <time>2017-03-29T16:41:55Z</time>
      </trkpt>
      <trkpt lat="47.98492" lon="7.27736">
        <ele>345.21432</ele>
        <time>2017-03-29T16:42:01Z</time>
      </trkpt>
      <trkpt lat="47.98493" lon="7.27736">
        <ele>346.21323</ele>
        <time>2017-03-29T16:42:06Z</time>
      </trkpt>
      <trkpt lat="47.98493" lon="7.2774">
        <ele>346.15994</ele>
        <time>2017-03-29T16:42:12Z</time>
      </trkpt>
      <trkpt lat="47.98494" lon="7.27741">
        <ele>346.1604</ele>
        <time>2017-03-29T16:42:17Z</time>
      </trkpt>
      <trkpt lat="47.98493" lon="7.27741">
        <ele>346.16187</ele>
        <time>2017-03-29T16:42:23Z</time>
      </trkpt>
      <trkpt lat="47.98494" lon="7.2774">
        <ele>346.16562</ele>
        <time>2017-03-29T16:42:28Z</time>
      </trkpt>
      <trkpt lat="47.98494" lon="7.2774">
        <ele>346.53558</ele>
        <time>2017-03-29T16:42:34Z</time>
      </trkpt>
      <trkpt lat="47.98494" lon="7.27739">
        <ele>347.98962</ele>
        <time>2017-03-29T16:42:40Z</time>
      </trkpt>
      <trkpt lat="47.98494" lon="7.27738">
        <ele>349.2679</ele>
        <time>2017-03-29T16:42:46Z</time>
      </trkpt>
      <trkpt lat="47.98495" lon="7.27735">
        <ele>349.781</ele>
        <time>2017-03-29T16:42:52Z</time>
      </trkpt>
      <trkpt lat="47.98496" lon="7.27733">
        <ele>350.07193</ele>
        <time>2017-03-29T16:42:57Z</time>
      </trkpt>
      <trkpt lat="47.98497" lon="7.27733">
        <ele>350.06827</ele>
        <time>2017-03-29T16:43:03Z</time>
      </trkpt>
      <trkpt lat="47.98496" lon="7.27732">
        <ele>349.87112</ele>
        <time>2017-03-29T16:43:09Z</time>
      </trkpt>
      <trkpt lat="47.98494" lon="7.27732">
        <ele>349.45557</ele>
        <time>2017-03-29T16:43:15Z</time>
      </trkpt>
      <trkpt lat="47.98494" lon="7.27734">
        <ele>348.9349</ele>
        <time>2017-03-29T16:43:21Z</time>
      </trkpt>
      <trkpt lat="47.98495" lon="7.27736">
        <ele>348.75717</ele>
        <time>2017-03-29T16:43:26Z</time>
      </trkpt>
      <trkpt lat="47.98495" lon="7.27737">
        <ele>349.09644</ele>
        <time>2017-03-29T16:43:31Z</time>
      </trkpt>
      <trkpt lat="47.98496" lon="7.27738">
        <ele>349.48984</ele>
        <time>2017-03-29T16:43:37Z</time>
      </trkpt>
      <trkpt lat="47.98496" lon="7.27737">
        <ele>349.93616</ele>
        <time>2017-03-29T16:43:43Z</time>
      </trkpt>
      <trkpt lat="47.98495" lon="7.27737">
        <ele>350.0254</ele>
        <time>2017-03-29T16:43:49Z</time>
      </trkpt>
      <trkpt lat="47.98494" lon="7.27736">
        <ele>350.22568</ele>
        <time>2017-03-29T16:43:55Z</time>
      </trkpt>
      <trkpt lat="47.98494" lon="7.27735">
        <ele>350.3469</ele>
        <time>2017-03-29T16:44:01Z</time>
      </trkpt>
      <trkpt lat="47.98494" lon="7.27737">
        <ele>350.68613</ele>
        <time>2017-03-29T16:44:06Z</time>
      </trkpt>
      <trkpt lat="47.98493" lon="7.27737">
        <ele>351.60245</ele>
        <time>2017-03-29T16:44:12Z</time>
      </trkpt>
      <trkpt lat="47.98486" lon="7.27735">
        <ele>351.9362</ele>
        <time>2017-03-29T16:44:17Z</time>
      </trkpt>
      <trkpt lat="47.98469" lon="7.27733">
        <ele>351.5226</ele>
        <time>2017-03-29T16:44:23Z</time>
      </trkpt>
      <trkpt lat="47.98451" lon="7.27735">
        <ele>351.2011</ele>
        <time>2017-03-29T16:44:29Z</time>
      </trkpt>
      <trkpt lat="47.98434" lon="7.27739">
        <ele>351.48608</ele>
        <time>2017-03-29T16:44:35Z</time>
      </trkpt>
      <trkpt lat="47.98419" lon="7.27743">
        <ele>351.76385</ele>
        <time>2017-03-29T16:44:41Z</time>
      </trkpt>
      <trkpt lat="47.98406" lon="7.27745">
        <ele>352.39145</ele>
        <time>2017-03-29T16:44:47Z</time>
      </trkpt>
      <trkpt lat="47.9839" lon="7.27747">
        <ele>352.93997</ele>
        <time>2017-03-29T16:44:53Z</time>
      </trkpt>
      <trkpt lat="47.9837" lon="7.27752">
        <ele>354.26947</ele>
        <time>2017-03-29T16:44:59Z</time>
      </trkpt>
      <trkpt lat="47.98358" lon="7.27757">
        <ele>355.58682</ele>
        <time>2017-03-29T16:45:05Z</time>
      </trkpt>
      <trkpt lat="47.98349" lon="7.27754">
        <ele>357.08484</ele>
        <time>2017-03-29T16:45:10Z</time>
      </trkpt>
      <trkpt lat="47.98335" lon="7.27749">
        <ele>358.64813</ele>
        <time>2017-03-29T16:45:16Z</time>
      </trkpt>
      <trkpt lat="47.98327" lon="7.27746">
        <ele>359.94537</ele>
        <time>2017-03-29T16:45:21Z</time>
      </trkpt>
      <trkpt lat="47.98322" lon="7.27741">
        <ele>361.32074</ele>
        <time>2017-03-29T16:45:27Z</time>
      </trkpt>
      <trkpt lat="47.98331" lon="7.27742">
        <ele>362.20746</ele>
        <time>2017-03-29T16:45:32Z</time>
      </trkpt>
      <trkpt lat="47.98331" lon="7.27741">
        <ele>362.96454</ele>
        <time>2017-03-29T16:45:37Z</time>
      </trkpt>
      <trkpt lat="47.98333" lon="7.27743">
        <ele>363.5689</ele>
        <time>2017-03-29T16:45:43Z</time>
      </trkpt>
      <trkpt lat="47.98348" lon="7.27748">
        <ele>364.32004</ele>
        <time>2017-03-29T16:45:49Z</time>
      </trkpt>
      <trkpt lat="47.98353" lon="7.27747">
        <ele>364.81534</ele>
        <time>2017-03-29T16:45:54Z</time>
      </trkpt>
      <trkpt lat="47.98352" lon="7.27746">
        <ele>364.87155</ele>
        <time>2017-03-29T16:45:59Z</time>
      </trkpt>
      <trkpt lat="47.98347" lon="7.27746">
        <ele>365.04593</ele>
        <time>2017-03-29T16:46:05Z</time>
      </trkpt>
      <trkpt lat="47.98334" lon="7.27743">
        <ele>365.14505</ele>
        <time>2017-03-29T16:46:11Z</time>
      </trkpt>
      <trkpt lat="47.98322" lon="7.2774">
        <ele>365.63638</ele>
        <time>2017-03-29T16:46:17Z</time>
      </trkpt>
      <trkpt lat="47.98306" lon="7.27731">
        <ele>366.65</ele>
        <time>2017-03-29T16:46:23Z</time>
      </trkpt>
      <trkpt lat="47.98291" lon="7.27721">
        <ele>367.12582</ele>
        <time>2017-03-29T16:46:29Z</time>
      </trkpt>
      <trkpt lat="47.98275" lon="7.27713">
        <ele>367.98138</ele>
        <time>2017-03-29T16:46:35Z</time>
      </trkpt>
      <trkpt lat="47.98265" lon="7.27705">
        <ele>369.19495</ele>
        <time>2017-03-29T16:46:41Z</time>
      </trkpt>
      <trkpt lat="47.98253" lon="7.27699">
        <ele>370.6911</ele>
        <time>2017-03-29T16:46:47Z</time>
      </trkpt>
      <trkpt lat="47.98245" lon="7.27694">
        <ele>371.8872</ele>
        <time>2017-03-29T16:46:52Z</time>
      </trkpt>
      <trkpt lat="47.98236" lon="7.27688">
        <ele>372.837</ele>
        <time>2017-03-29T16:46:57Z</time>
      </trkpt>
      <trkpt lat="47.98223" lon="7.27681">
        <ele>373.7131</ele>
        <time>2017-03-29T16:47:03Z</time>
      </trkpt>
      <trkpt lat="47.98212" lon="7.27675">
        <ele>375.1499</ele>
        <time>2017-03-29T16:47:09Z</time>
      </trkpt>
      <trkpt lat="47.98202" lon="7.27668">
        <ele>376.4184</ele>
        <time>2017-03-29T16:47:15Z</time>
      </trkpt>
      <trkpt lat="47.98198" lon="7.27663">
        <ele>377.27338</ele>
        <time>2017-03-29T16:47:20Z</time>
      </trkpt>
      <trkpt lat="47.9819" lon="7.27656">
        <ele>378.14917</ele>
        <time>2017-03-29T16:47:25Z</time>
      </trkpt>
      <trkpt lat="47.98181" lon="7.27646">
        <ele>379.0839</ele>
        <time>2017-03-29T16:47:31Z</time>
      </trkpt>
      <trkpt lat="47.98173" lon="7.27636">
        <ele>380.03052</ele>
        <time>2017-03-29T16:47:36Z</time>
      </trkpt>
      <trkpt lat="47.98165" lon="7.27628">
        <ele>381.23602</ele>
        <time>2017-03-29T16:47:42Z</time>
      </trkpt>
      <trkpt lat="47.9816" lon="7.27621">
        <ele>382.386</ele>
        <time>2017-03-29T16:47:47Z</time>
      </trkpt>
      <trkpt lat="47.98154" lon="7.27611">
        <ele>383.47107</ele>
        <time>2017-03-29T16:47:52Z</time>
      </trkpt>
      <trkpt lat="47.98146" lon="7.27604">
        <ele>384.54306</ele>
        <time>2017-03-29T16:47:57Z</time>
      </trkpt>
      <trkpt lat="47.98138" lon="7.27595">
        <ele>385.8833</ele>
        <time>2017-03-29T16:48:03Z</time>
      </trkpt>
      <trkpt lat="47.98132" lon="7.27589">
        <ele>387.08612</ele>
        <time>2017-03-29T16:48:09Z</time>
      </trkpt>
      <trkpt lat="47.98128" lon="7.2758">
        <ele>387.9921</ele>
        <time>2017-03-29T16:48:14Z</time>
      </trkpt>
      <trkpt lat="47.98119" lon="7.27573">
        <ele>388.97308</ele>
        <time>2017-03-29T16:48:20Z</time>
      </trkpt>
      <trkpt lat="47.98121" lon="7.27572">
        <ele>389.7043</ele>
        <time>2017-03-29T16:48:25Z</time>
      </trkpt>
      <trkpt lat="47.9812" lon="7.27573">
        <ele>390.7338</ele>
        <time>2017-03-29T16:48:31Z</time>
      </trkpt>
      <trkpt lat="47.98118" lon="7.27579">
        <ele>391.61676</ele>
        <time>2017-03-29T16:48:37Z</time>
      </trkpt>
      <trkpt lat="47.98118" lon="7.27579">
        <ele>392.31726</ele>
        <time>2017-03-29T16:48:43Z</time>
      </trkpt>
      <trkpt lat="47.98118" lon="7.27579">
        <ele>393.1222</ele>
        <time>2017-03-29T16:48:48Z</time>
      </trkpt>
      <trkpt lat="47.98119" lon="7.27577">
        <ele>394.07568</ele>
        <time>2017-03-29T16:48:54Z</time>
      </trkpt>
      <trkpt lat="47.98119" lon="7.27576">
        <ele>394.75064</ele>
        <time>2017-03-29T16:49:00Z</time>
      </trkpt>
      <trkpt lat="47.9812" lon="7.27576">
        <ele>395.58768</ele>
        <time>2017-03-29T16:49:05Z</time>
      </trkpt>
      <trkpt lat="47.9812" lon="7.27573">
        <ele>395.9256</ele>
        <time>2017-03-29T16:49:11Z</time>
      </trkpt>
      <trkpt lat="47.98121" lon="7.27572">
        <ele>395.97568</ele>
        <time>2017-03-29T16:49:17Z</time>
      </trkpt>
      <trkpt lat="47.98121" lon="7.27571">
        <ele>396.03323</ele>
        <time>2017-03-29T16:49:22Z</time>
      </trkpt>
      <trkpt lat="47.98121" lon="7.2757">
        <ele>396.33792</ele>
        <time>2017-03-29T16:49:28Z</time>
      </trkpt>
      <trkpt lat="47.98121" lon="7.2757">
        <ele>396.7271</ele>
        <time>2017-03-29T16:49:34Z</time>
      </trkpt>
      <trkpt lat="47.9812" lon="7.27571">
        <ele>396.9964</ele>
        <time>2017-03-29T16:49:40Z</time>
      </trkpt>
      <trkpt lat="47.9812" lon="7.27572">
        <ele>397.52805</ele>
        <time>2017-03-29T16:49:46Z</time>
      </trkpt>
      <trkpt lat="47.9812" lon="7.27571">
        <ele>398.00256</ele>
        <time>2017-03-29T16:49:51Z</time>
      </trkpt>
      <trkpt lat="47.98121" lon="7.27571">
        <ele>398.36615</ele>
        <time>2017-03-29T16:49:57Z</time>
      </trkpt>
      <trkpt lat="47.98118" lon="7.27573">
        <ele>398.1175</ele>
        <time>2017-03-29T16:50:03Z</time>
      </trkpt>
      <trkpt lat="47.98118" lon="7.27573">
        <ele>398.10626</ele>
        <time>2017-03-29T16:50:09Z</time>
      </trkpt>
      <trkpt lat="47.98119" lon="7.27572">
        <ele>398.08673</ele>
        <time>2017-03-29T16:50:15Z</time>
      </trkpt>
      <trkpt lat="47.9812" lon="7.27573">
        <ele>398.0531</ele>
        <time>2017-03-29T16:50:21Z</time>
      </trkpt>
      <trkpt lat="47.9812" lon="7.27574">
        <ele>397.90656</ele>
        <time>2017-03-29T16:50:27Z</time>
      </trkpt>
      <trkpt lat="47.9812" lon="7.27574">
        <ele>397.8406</ele>
        <time>2017-03-29T16:50:33Z</time>
      </trkpt>
      <trkpt lat="47.9812" lon="7.27573">
        <ele>398.02155</ele>
        <time>2017-03-29T16:50:38Z</time>
      </trkpt>
      <trkpt lat="47.98121" lon="7.27573">
        <ele>397.59274</ele>
        <time>2017-03-29T16:50:43Z</time>
      </trkpt>
      <trkpt lat="47.98122" lon="7.27572">
        <ele>397.35696</ele>
        <time>2017-03-29T16:50:49Z</time>
      </trkpt>
      <trkpt lat="47.98122" lon="7.27573">
        <ele>397.20294</ele>
        <time>2017-03-29T16:50:54Z</time>
      </trkpt>
      <trkpt lat="47.98122" lon="7.27574">
        <ele>397.45023</ele>
        <time>2017-03-29T16:51:00Z</time>
      </trkpt>
      <trkpt lat="47.9812" lon="7.27573">
        <ele>397.90198</ele>
        <time>2017-03-29T16:51:06Z</time>
      </trkpt>
      <trkpt lat="47.9812" lon="7.27574">
        <ele>398.29013</ele>
        <time>2017-03-29T16:51:11Z</time>
      </trkpt>
      <trkpt lat="47.9812" lon="7.27574">
        <ele>398.76913</ele>
        <time>2017-03-29T16:51:17Z</time>
      </trkpt>
      <trkpt lat="47.9812" lon="7.27575">
        <ele>398.82254</ele>
        <time>2017-03-29T16:51:22Z</time>
      </trkpt>
      <trkpt lat="47.98119" lon="7.27575">
        <ele>399.3306</ele>
        <time>2017-03-29T16:51:28Z</time>
      </trkpt>
      <trkpt lat="47.98119" lon="7.27576">
        <ele>400.02582</ele>
        <time>2017-03-29T16:51:33Z</time>
      </trkpt>
      <trkpt lat="47.98118" lon="7.27574">
        <ele>400.39026</ele>
        <time>2017-03-29T16:51:39Z</time>
      </trkpt>
      <trkpt lat="47.98111" lon="7.27569">
        <ele>400.50674</ele>
        <time>2017-03-29T16:51:45Z</time>
      </trkpt>
      <trkpt lat="47.98103" lon="7.27561">
        <ele>400.7065</ele>
        <time>2017-03-29T16:51:51Z</time>
      </trkpt>
      <trkpt lat="47.98094" lon="7.27552">
        <ele>400.70947</ele>
        <time>2017-03-29T16:51:57Z</time>
      </trkpt>
      <trkpt lat="47.98085" lon="7.27547">
        <ele>400.2258</ele>
        <time>2017-03-29T16:52:03Z</time>
      </trkpt>
      <trkpt lat="47.98079" lon="7.27544">
        <ele>399.9184</ele>
        <time>2017-03-29T16:52:08Z</time>
      </trkpt>
      <trkpt lat="47.98069" lon="7.2754">
        <ele>400.03876</ele>
        <time>2017-03-29T16:52:14Z</time>
      </trkpt>
      <trkpt lat="47.9806" lon="7.27537">
        <ele>400.50128</ele>
        <time>2017-03-29T16:52:19Z</time>
      </trkpt>
      <trkpt lat="47.98055" lon="7.27529">
        <ele>400.92676</ele>
        <time>2017-03-29T16:52:25Z</time>
      </trkpt>
      <trkpt lat="47.98053" lon="7.2751">
        <ele>401.20776</ele>
        <time>2017-03-29T16:52:30Z</time>
      </trkpt>
      <trkpt lat="47.9805" lon="7.27482">
        <ele>403.78653</ele>
        <time>2017-03-29T16:52:35Z</time>
      </trkpt>
      <trkpt lat="47.98048" lon="7.27454">
        <ele>403.0843</ele>
        <time>2017-03-29T16:52:40Z</time>
      </trkpt>
      <trkpt lat="47.98047" lon="7.27432">
        <ele>402.5698</ele>
        <time>2017-03-29T16:52:46Z</time>
      </trkpt>
      <trkpt lat="47.98047" lon="7.27409">
        <ele>402.32156</ele>
        <time>2017-03-29T16:52:52Z</time>
      </trkpt>
      <trkpt lat="47.98046" lon="7.27387">
        <ele>402.55237</ele>
        <time>2017-03-29T16:52:58Z</time>
      </trkpt>
      <trkpt lat="47.98047" lon="7.27375">
        <ele>403.11176</ele>
        <time>2017-03-29T16:53:03Z</time>
      </trkpt>
      <trkpt lat="47.98039" lon="7.2737">
        <ele>402.83142</ele>
        <time>2017-03-29T16:53:09Z</time>
      </trkpt>
      <trkpt lat="47.9803" lon="7.27367">
        <ele>402.10846</ele>
        <time>2017-03-29T16:53:15Z</time>
      </trkpt>
      <trkpt lat="47.98024" lon="7.27368">
        <ele>400.61584</ele>
        <time>2017-03-29T16:53:21Z</time>
      </trkpt>
      <trkpt lat="47.98017" lon="7.27368">
        <ele>399.3902</ele>
        <time>2017-03-29T16:53:27Z</time>
      </trkpt>
      <trkpt lat="47.9801" lon="7.27367">
        <ele>398.0554</ele>
        <time>2017-03-29T16:53:33Z</time>
      </trkpt>
      <trkpt lat="47.98007" lon="7.27367">
        <ele>396.72348</ele>
        <time>2017-03-29T16:53:38Z</time>
      </trkpt>
      <trkpt lat="47.98002" lon="7.27367">
        <ele>395.3327</ele>
        <time>2017-03-29T16:53:44Z</time>
      </trkpt>
      <trkpt lat="47.97999" lon="7.27368">
        <ele>394.3999</ele>
        <time>2017-03-29T16:53:49Z</time>
      </trkpt>
      <trkpt lat="47.97995" lon="7.27367">
        <ele>393.1777</ele>
        <time>2017-03-29T16:53:55Z</time>
      </trkpt>
      <trkpt lat="47.97983" lon="7.27364">
        <ele>393.15485</ele>
        <time>2017-03-29T16:54:00Z</time>
      </trkpt>
      <trkpt lat="47.97958" lon="7.27358">
        <ele>393.2281</ele>
        <time>2017-03-29T16:54:05Z</time>
      </trkpt>
      <trkpt lat="47.97924" lon="7.27349">
        <ele>392.87363</ele>
        <time>2017-03-29T16:54:10Z</time>
      </trkpt>
      <trkpt lat="47.97876" lon="7.27333">
        <ele>388.21625</ele>
        <time>2017-03-29T16:54:16Z</time>
      </trkpt>
      <trkpt lat="47.97848" lon="7.27339">
        <ele>381.37097</ele>
        <time>2017-03-29T16:54:22Z</time>
      </trkpt>
      <trkpt lat="47.97838" lon="7.27375">
        <ele>378.3711</ele>
        <time>2017-03-29T16:54:27Z</time>
      </trkpt>
      <trkpt lat="47.97805" lon="7.2737">
        <ele>376.9715</ele>
        <time>2017-03-29T16:54:33Z</time>
      </trkpt>
      <trkpt lat="47.97766" lon="7.27359">
        <ele>375.01666</ele>
        <time>2017-03-29T16:54:39Z</time>
      </trkpt>
      <trkpt lat="47.97728" lon="7.27371">
        <ele>369.79443</ele>
        <time>2017-03-29T16:54:45Z</time>
      </trkpt>
      <trkpt lat="47.97684" lon="7.27359">
        <ele>364.21298</ele>
        <time>2017-03-29T16:54:51Z</time>
      </trkpt>
      <trkpt lat="47.97664" lon="7.27327">
        <ele>358.46558</ele>
        <time>2017-03-29T16:54:57Z</time>
      </trkpt>
      <trkpt lat="47.97653" lon="7.27302">
        <ele>358.595</ele>
        <time>2017-03-29T16:55:03Z</time>
      </trkpt>
      <trkpt lat="47.97632" lon="7.27275">
        <ele>359.34265</ele>
        <time>2017-03-29T16:55:09Z</time>
      </trkpt>
      <trkpt lat="47.97613" lon="7.27243">
        <ele>356.6575</ele>
        <time>2017-03-29T16:55:15Z</time>
      </trkpt>
      <trkpt lat="47.97593" lon="7.27223">
        <ele>356.96414</ele>
        <time>2017-03-29T16:55:21Z</time>
      </trkpt>
      <trkpt lat="47.97574" lon="7.27213">
        <ele>359.03302</ele>
        <time>2017-03-29T16:55:26Z</time>
      </trkpt>
      <trkpt lat="47.97555" lon="7.27206">
        <ele>358.39407</ele>
        <time>2017-03-29T16:55:31Z</time>
      </trkpt>
      <trkpt lat="47.9753" lon="7.27195">
        <ele>360.4669</ele>
        <time>2017-03-29T16:55:37Z</time>
      </trkpt>
      <trkpt lat="47.97505" lon="7.27186">
        <ele>365.19043</ele>
        <time>2017-03-29T16:55:43Z</time>
      </trkpt>
      <trkpt lat="47.97486" lon="7.2718">
        <ele>365.7713</ele>
        <time>2017-03-29T16:55:49Z</time>
      </trkpt>
      <trkpt lat="47.97474" lon="7.27179">
        <ele>366.3448</ele>
        <time>2017-03-29T16:55:54Z</time>
      </trkpt>
      <trkpt lat="47.9746" lon="7.2718">
        <ele>366.44464</ele>
        <time>2017-03-29T16:55:59Z</time>
      </trkpt>
      <trkpt lat="47.97447" lon="7.2718">
        <ele>366.93668</ele>
        <time>2017-03-29T16:56:04Z</time>
      </trkpt>
      <trkpt lat="47.97435" lon="7.27195">
        <ele>368.0814</ele>
        <time>2017-03-29T16:56:09Z</time>
      </trkpt>
      <trkpt lat="47.97421" lon="7.2722">
        <ele>375.24115</ele>
        <time>2017-03-29T16:56:14Z</time>
      </trkpt>
      <trkpt lat="47.97418" lon="7.27313">
        <ele>382.0546</ele>
        <time>2017-03-29T16:56:20Z</time>
      </trkpt>
      <trkpt lat="47.97427" lon="7.27356">
        <ele>374.37326</ele>
        <time>2017-03-29T16:56:25Z</time>
      </trkpt>
      <trkpt lat="47.97416" lon="7.27356">
        <ele>373.28687</ele>
        <time>2017-03-29T16:56:31Z</time>
      </trkpt>
      <trkpt lat="47.9741" lon="7.27358">
        <ele>371.96725</ele>
        <time>2017-03-29T16:56:37Z</time>
      </trkpt>
      <trkpt lat="47.97404" lon="7.27355">
        <ele>371.23807</ele>
        <time>2017-03-29T16:56:42Z</time>
      </trkpt>
      <trkpt lat="47.97393" lon="7.27351">
        <ele>370.6226</ele>
        <time>2017-03-29T16:56:48Z</time>
      </trkpt>
      <trkpt lat="47.97382" lon="7.27346">
        <ele>368.76605</ele>
        <time>2017-03-29T16:56:53Z</time>
      </trkpt>
      <trkpt lat="47.97374" lon="7.27342">
        <ele>367.62393</ele>
        <time>2017-03-29T16:56:59Z</time>
      </trkpt>
      <trkpt lat="47.97369" lon="7.27339">
        <ele>366.9221</ele>
        <time>2017-03-29T16:57:04Z</time>
      </trkpt>
      <trkpt lat="47.97357" lon="7.27339">
        <ele>366.27597</ele>
        <time>2017-03-29T16:57:09Z</time>
      </trkpt>
      <trkpt lat="47.97348" lon="7.27335">
        <ele>365.8459</ele>
        <time>2017-03-29T16:57:15Z</time>
      </trkpt>
      <trkpt lat="47.97338" lon="7.27333">
        <ele>366.08762</ele>
        <time>2017-03-29T16:57:21Z</time>
      </trkpt>
      <trkpt lat="47.97326" lon="7.27331">
        <ele>365.87973</ele>
        <time>2017-03-29T16:57:27Z</time>
      </trkpt>
      <trkpt lat="47.97308" lon="7.2733">
        <ele>365.91315</ele>
        <time>2017-03-29T16:57:33Z</time>
      </trkpt>
      <trkpt lat="47.97294" lon="7.27328">
        <ele>366.17288</ele>
        <time>2017-03-29T16:57:39Z</time>
      </trkpt>
      <trkpt lat="47.97284" lon="7.27323">
        <ele>366.59143</ele>
        <time>2017-03-29T16:57:45Z</time>
      </trkpt>
      <trkpt lat="47.97275" lon="7.27319">
        <ele>367.06442</ele>
        <time>2017-03-29T16:57:50Z</time>
      </trkpt>
      <trkpt lat="47.97261" lon="7.27316">
        <ele>367.17786</ele>
        <time>2017-03-29T16:57:56Z</time>
      </trkpt>
      <trkpt lat="47.97245" lon="7.27313">
        <ele>366.78333</ele>
        <time>2017-03-29T16:58:02Z</time>
      </trkpt>
      <trkpt lat="47.9723" lon="7.2731">
        <ele>366.51822</ele>
        <time>2017-03-29T16:58:08Z</time>
      </trkpt>
      <trkpt lat="47.97216" lon="7.27304">
        <ele>366.5479</ele>
        <time>2017-03-29T16:58:14Z</time>
      </trkpt>
      <trkpt lat="47.97205" lon="7.27299">
        <ele>366.56186</ele>
        <time>2017-03-29T16:58:19Z</time>
      </trkpt>
      <trkpt lat="47.97186" lon="7.27288">
        <ele>366.62125</ele>
        <time>2017-03-29T16:58:25Z</time>
      </trkpt>
      <trkpt lat="47.97176" lon="7.2728">
        <ele>366.97818</ele>
        <time>2017-03-29T16:58:31Z</time>
      </trkpt>
      <trkpt lat="47.97165" lon="7.27276">
        <ele>367.5082</ele>
        <time>2017-03-29T16:58:36Z</time>
      </trkpt>
      <trkpt lat="47.97153" lon="7.2727">
        <ele>368.05206</ele>
        <time>2017-03-29T16:58:41Z</time>
      </trkpt>
      <trkpt lat="47.97145" lon="7.27266">
        <ele>369.1005</ele>
        <time>2017-03-29T16:58:47Z</time>
      </trkpt>
      <trkpt lat="47.97135" lon="7.27263">
        <ele>369.7958</ele>
        <time>2017-03-29T16:58:53Z</time>
      </trkpt>
      <trkpt lat="47.97121" lon="7.27261">
        <ele>369.94022</ele>
        <time>2017-03-29T16:58:58Z</time>
      </trkpt>
      <trkpt lat="47.97109" lon="7.27262">
        <ele>370.04398</ele>
        <time>2017-03-29T16:59:04Z</time>
      </trkpt>
      <trkpt lat="47.97097" lon="7.2726">
        <ele>369.97946</ele>
        <time>2017-03-29T16:59:09Z</time>
      </trkpt>
      <trkpt lat="47.97083" lon="7.27262">
        <ele>369.93713</ele>
        <time>2017-03-29T16:59:14Z</time>
      </trkpt>
      <trkpt lat="47.9707" lon="7.27258">
        <ele>370.02084</ele>
        <time>2017-03-29T16:59:20Z</time>
      </trkpt>
      <trkpt lat="47.97057" lon="7.27252">
        <ele>370.51935</ele>
        <time>2017-03-29T16:59:25Z</time>
      </trkpt>
      <trkpt lat="47.97042" lon="7.2725">
        <ele>371.20816</ele>
        <time>2017-03-29T16:59:31Z</time>
      </trkpt>
      <trkpt lat="47.97034" lon="7.27244">
        <ele>371.71817</ele>
        <time>2017-03-29T16:59:36Z</time>
      </trkpt>
      <trkpt lat="47.97023" lon="7.27237">
        <ele>372.6016</ele>
        <time>2017-03-29T16:59:42Z</time>
      </trkpt>
      <trkpt lat="47.97013" lon="7.27232">
        <ele>373.25574</ele>
        <time>2017-03-29T16:59:47Z</time>
      </trkpt>
      <trkpt lat="47.97004" lon="7.27225">
        <ele>374.35974</ele>
        <time>2017-03-29T16:59:53Z</time>
      </trkpt>
      <trkpt lat="47.96996" lon="7.27213">
        <ele>375.22583</ele>
        <time>2017-03-29T16:59:59Z</time>
      </trkpt>
      <trkpt lat="47.96987" lon="7.272">
        <ele>376.24347</ele>
        <time>2017-03-29T17:00:05Z</time>
      </trkpt>
      <trkpt lat="47.96979" lon="7.27188">
        <ele>377.00076</ele>
        <time>2017-03-29T17:00:10Z</time>
      </trkpt>
      <trkpt lat="47.96968" lon="7.27175">
        <ele>378.27463</ele>
        <time>2017-03-29T17:00:16Z</time>
      </trkpt>
      <trkpt lat="47.96957" lon="7.27161">
        <ele>379.2828</ele>
        <time>2017-03-29T17:00:22Z</time>
      </trkpt>
      <trkpt lat="47.96945" lon="7.27147">
        <ele>380.28976</ele>
        <time>2017-03-29T17:00:28Z</time>
      </trkpt>
      <trkpt lat="47.96937" lon="7.27134">
        <ele>381.23697</ele>
        <time>2017-03-29T17:00:33Z</time>
      </trkpt>
      <trkpt lat="47.96928" lon="7.27121">
        <ele>381.91928</ele>
        <time>2017-03-29T17:00:38Z</time>
      </trkpt>
      <trkpt lat="47.96911" lon="7.27099">
        <ele>385.68338</ele>
        <time>2017-03-29T17:00:44Z</time>
      </trkpt>
      <trkpt lat="47.9689" lon="7.27077">
        <ele>386.9875</ele>
        <time>2017-03-29T17:00:49Z</time>
      </trkpt>
      <trkpt lat="47.96869" lon="7.2706">
        <ele>386.56058</ele>
        <time>2017-03-29T17:00:55Z</time>
      </trkpt>
      <trkpt lat="47.96851" lon="7.27048">
        <ele>387.53815</ele>
        <time>2017-03-29T17:01:01Z</time>
      </trkpt>
      <trkpt lat="47.96829" lon="7.27039">
        <ele>388.7228</ele>
        <time>2017-03-29T17:01:07Z</time>
      </trkpt>
      <trkpt lat="47.96816" lon="7.27032">
        <ele>389.34567</ele>
        <time>2017-03-29T17:01:13Z</time>
      </trkpt>
      <trkpt lat="47.96806" lon="7.27027">
        <ele>389.6771</ele>
        <time>2017-03-29T17:01:18Z</time>
      </trkpt>
      <trkpt lat="47.96792" lon="7.27028">
        <ele>390.0657</ele>
        <time>2017-03-29T17:01:24Z</time>
      </trkpt>
      <trkpt lat="47.96785" lon="7.27035">
        <ele>390.46103</ele>
        <time>2017-03-29T17:01:30Z</time>
      </trkpt>
      <trkpt lat="47.96783" lon="7.27037">
        <ele>390.79004</ele>
        <time>2017-03-29T17:01:35Z</time>
      </trkpt>
      <trkpt lat="47.96782" lon="7.27037">
        <ele>392.03308</ele>
        <time>2017-03-29T17:01:41Z</time>
      </trkpt>
      <trkpt lat="47.96781" lon="7.27033">
        <ele>392.29208</ele>
        <time>2017-03-29T17:01:47Z</time>
      </trkpt>
      <trkpt lat="47.96781" lon="7.27032">
        <ele>392.3408</ele>
        <time>2017-03-29T17:01:53Z</time>
      </trkpt>
      <trkpt lat="47.9678" lon="7.27031">
        <ele>392.41873</ele>
        <time>2017-03-29T17:01:58Z</time>
      </trkpt>
      <trkpt lat="47.9678" lon="7.2703">
        <ele>392.45065</ele>
        <time>2017-03-29T17:02:03Z</time>
      </trkpt>
      <trkpt lat="47.96781" lon="7.27031">
        <ele>392.5097</ele>
        <time>2017-03-29T17:02:09Z</time>
      </trkpt>
      <trkpt lat="47.96781" lon="7.27032">
        <ele>392.62186</ele>
        <time>2017-03-29T17:02:14Z</time>
      </trkpt>
      <trkpt lat="47.96781" lon="7.27033">
        <ele>392.81143</ele>
        <time>2017-03-29T17:02:20Z</time>
      </trkpt>
      <trkpt lat="47.96781" lon="7.27033">
        <ele>392.95392</ele>
        <time>2017-03-29T17:02:25Z</time>
      </trkpt>
      <trkpt lat="47.96781" lon="7.27034">
        <ele>393.00925</ele>
        <time>2017-03-29T17:02:31Z</time>
      </trkpt>
      <trkpt lat="47.96781" lon="7.27033">
        <ele>393.2842</ele>
        <time>2017-03-29T17:02:37Z</time>
      </trkpt>
      <trkpt lat="47.96782" lon="7.27031">
        <ele>393.8542</ele>
        <time>2017-03-29T17:02:43Z</time>
      </trkpt>
      <trkpt lat="47.96787" lon="7.27029">
        <ele>394.24777</ele>
        <time>2017-03-29T17:02:48Z</time>
      </trkpt>
      <trkpt lat="47.96788" lon="7.27028">
        <ele>394.391</ele>
        <time>2017-03-29T17:02:54Z</time>
      </trkpt>
      <trkpt lat="47.96789" lon="7.27028">
        <ele>394.5277</ele>
        <time>2017-03-29T17:03:00Z</time>
      </trkpt>
      <trkpt lat="47.96789" lon="7.27029">
        <ele>394.66122</ele>
        <time>2017-03-29T17:03:06Z</time>
      </trkpt>
      <trkpt lat="47.96788" lon="7.27028">
        <ele>395.20453</ele>
        <time>2017-03-29T17:03:11Z</time>
      </trkpt>
      <trkpt lat="47.96787" lon="7.27028">
        <ele>396.0444</ele>
        <time>2017-03-29T17:03:17Z</time>
      </trkpt>
      <trkpt lat="47.96786" lon="7.27028">
        <ele>396.27374</ele>
        <time>2017-03-29T17:03:22Z</time>
      </trkpt>
      <trkpt lat="47.96788" lon="7.2703">
        <ele>395.99524</ele>
        <time>2017-03-29T17:03:28Z</time>
      </trkpt>
      <trkpt lat="47.96788" lon="7.27031">
        <ele>395.8097</ele>
        <time>2017-03-29T17:03:33Z</time>
      </trkpt>
      <trkpt lat="47.96789" lon="7.27032">
        <ele>395.70004</ele>
        <time>2017-03-29T17:03:38Z</time>
      </trkpt>
      <trkpt lat="47.96788" lon="7.27032">
        <ele>395.7062</ele>
        <time>2017-03-29T17:03:43Z</time>
      </trkpt>
      <trkpt lat="47.96785" lon="7.27033">
        <ele>396.0802</ele>
        <time>2017-03-29T17:03:49Z</time>
      </trkpt>
      <trkpt lat="47.96784" lon="7.27032">
        <ele>396.67294</ele>
        <time>2017-03-29T17:03:55Z</time>
      </trkpt>
      <trkpt lat="47.96784" lon="7.27033">
        <ele>397.45163</ele>
        <time>2017-03-29T17:04:00Z</time>
      </trkpt>
      <trkpt lat="47.96782" lon="7.27032">
        <ele>397.99677</ele>
        <time>2017-03-29T17:04:06Z</time>
      </trkpt>
      <trkpt lat="47.96781" lon="7.27032">
        <ele>398.71182</ele>
        <time>2017-03-29T17:04:12Z</time>
      </trkpt>
      <trkpt lat="47.96778" lon="7.27035">
        <ele>399.12048</ele>
        <time>2017-03-29T17:04:17Z</time>
      </trkpt>
      <trkpt lat="47.96784" lon="7.27053">
        <ele>399.2398</ele>
        <time>2017-03-29T17:04:22Z</time>
      </trkpt>
      <trkpt lat="47.9679" lon="7.2707">
        <ele>398.7771</ele>
        <time>2017-03-29T17:04:28Z</time>
      </trkpt>
      <trkpt lat="47.96792" lon="7.27091">
        <ele>398.4915</ele>
        <time>2017-03-29T17:04:34Z</time>
      </trkpt>
      <trkpt lat="47.96799" lon="7.27127">
        <ele>398.5771</ele>
        <time>2017-03-29T17:04:40Z</time>
      </trkpt>
      <trkpt lat="47.96806" lon="7.27156">
        <ele>398.9535</ele>
        <time>2017-03-29T17:04:46Z</time>
      </trkpt>
      <trkpt lat="47.96814" lon="7.27187">
        <ele>399.24442</ele>
        <time>2017-03-29T17:04:52Z</time>
      </trkpt>
      <trkpt lat="47.96822" lon="7.27219">
        <ele>400.62808</ele>
        <time>2017-03-29T17:04:58Z</time>
      </trkpt>
      <trkpt lat="47.96825" lon="7.27252">
        <ele>402.1395</ele>
        <time>2017-03-29T17:05:03Z</time>
      </trkpt>
      <trkpt lat="47.96829" lon="7.27271">
        <ele>402.50974</ele>
        <time>2017-03-29T17:05:09Z</time>
      </trkpt>
      <trkpt lat="47.96827" lon="7.27286">
        <ele>402.70016</ele>
        <time>2017-03-29T17:05:14Z</time>
      </trkpt>
      <trkpt lat="47.96825" lon="7.27297">
        <ele>403.25476</ele>
        <time>2017-03-29T17:05:20Z</time>
      </trkpt>
      <trkpt lat="47.96824" lon="7.27311">
        <ele>403.39737</ele>
        <time>2017-03-29T17:05:25Z</time>
      </trkpt>
      <trkpt lat="47.96822" lon="7.2734">
        <ele>403.22324</ele>
        <time>2017-03-29T17:05:31Z</time>
      </trkpt>
      <trkpt lat="47.96821" lon="7.27376">
        <ele>402.6584</ele>
        <time>2017-03-29T17:05:37Z</time>
      </trkpt>
      <trkpt lat="47.96819" lon="7.27416">
        <ele>403.4495</ele>
        <time>2017-03-29T17:05:43Z</time>
      </trkpt>
      <trkpt lat="47.96821" lon="7.2745">
        <ele>403.29404</ele>
        <time>2017-03-29T17:05:48Z</time>
      </trkpt>
      <trkpt lat="47.96825" lon="7.27488">
        <ele>402.26602</ele>
        <time>2017-03-29T17:05:54Z</time>
      </trkpt>
      <trkpt lat="47.96833" lon="7.27518">
        <ele>402.39517</ele>
        <time>2017-03-29T17:06:00Z</time>
      </trkpt>
      <trkpt lat="47.96844" lon="7.27545">
        <ele>402.32193</ele>
        <time>2017-03-29T17:06:06Z</time>
      </trkpt>
      <trkpt lat="47.96853" lon="7.27569">
        <ele>402.4947</ele>
        <time>2017-03-29T17:06:12Z</time>
      </trkpt>
      <trkpt lat="47.96859" lon="7.2759">
        <ele>402.93378</ele>
        <time>2017-03-29T17:06:18Z</time>
      </trkpt>
      <trkpt lat="47.9686" lon="7.27608">
        <ele>403.42142</ele>
        <time>2017-03-29T17:06:23Z</time>
      </trkpt>
      <trkpt lat="47.96858" lon="7.27631">
        <ele>404.59836</ele>
        <time>2017-03-29T17:06:29Z</time>
      </trkpt>
      <trkpt lat="47.96858" lon="7.27656">
        <ele>405.85687</ele>
        <time>2017-03-29T17:06:35Z</time>
      </trkpt>
      <trkpt lat="47.9686" lon="7.27677">
        <ele>406.81076</ele>
        <time>2017-03-29T17:06:41Z</time>
      </trkpt>
      <trkpt lat="47.96866" lon="7.27691">
        <ele>407.9792</ele>
        <time>2017-03-29T17:06:46Z</time>
      </trkpt>
      <trkpt lat="47.96874" lon="7.27714">
        <ele>409.05457</ele>
        <time>2017-03-29T17:06:52Z</time>
      </trkpt>
      <trkpt lat="47.96883" lon="7.2774">
        <ele>409.865</ele>
        <time>2017-03-29T17:06:58Z</time>
      </trkpt>
      <trkpt lat="47.96884" lon="7.27759">
        <ele>410.53598</ele>
        <time>2017-03-29T17:07:04Z</time>
      </trkpt>
      <trkpt lat="47.96883" lon="7.27782">
        <ele>412.9581</ele>
        <time>2017-03-29T17:07:10Z</time>
      </trkpt>
      <trkpt lat="47.96891" lon="7.27789">
        <ele>413.04617</ele>
        <time>2017-03-29T17:07:15Z</time>
      </trkpt>
      <trkpt lat="47.96896" lon="7.27797">
        <ele>413.03952</ele>
        <time>2017-03-29T17:07:21Z</time>
      </trkpt>
      <trkpt lat="47.96887" lon="7.27787">
        <ele>413.35272</ele>
        <time>2017-03-29T17:07:27Z</time>
      </trkpt>
      <trkpt lat="47.96867" lon="7.2778">
        <ele>413.70438</ele>
        <time>2017-03-29T17:07:33Z</time>
      </trkpt>
      <trkpt lat="47.96846" lon="7.27779">
        <ele>415.65448</ele>
        <time>2017-03-29T17:07:38Z</time>
      </trkpt>
      <trkpt lat="47.96823" lon="7.27785">
        <ele>416.31168</ele>
        <time>2017-03-29T17:07:44Z</time>
      </trkpt>
      <trkpt lat="47.96799" lon="7.27786">
        <ele>416.519</ele>
        <time>2017-03-29T17:07:50Z</time>
      </trkpt>
      <trkpt lat="47.96775" lon="7.27787">
        <ele>416.9566</ele>
        <time>2017-03-29T17:07:56Z</time>
      </trkpt>
      <trkpt lat="47.96759" lon="7.2779">
        <ele>416.6625</ele>
        <time>2017-03-29T17:08:01Z</time>
      </trkpt>
      <trkpt lat="47.96741" lon="7.27798">
        <ele>416.41364</ele>
        <time>2017-03-29T17:08:07Z</time>
      </trkpt>
      <trkpt lat="47.96722" lon="7.27811">
        <ele>416.71255</ele>
        <time>2017-03-29T17:08:12Z</time>
      </trkpt>
      <trkpt lat="47.96695" lon="7.27822">
        <ele>418.31607</ele>
        <time>2017-03-29T17:08:18Z</time>
      </trkpt>
      <trkpt lat="47.96678" lon="7.2783">
        <ele>418.46173</ele>
        <time>2017-03-29T17:08:23Z</time>
      </trkpt>
      <trkpt lat="47.96659" lon="7.27829">
        <ele>418.6972</ele>
        <time>2017-03-29T17:08:29Z</time>
      </trkpt>
      <trkpt lat="47.96637" lon="7.27824">
        <ele>419.26407</ele>
        <time>2017-03-29T17:08:34Z</time>
      </trkpt>
      <trkpt lat="47.9661" lon="7.27821">
        <ele>419.11172</ele>
        <time>2017-03-29T17:08:40Z</time>
      </trkpt>
      <trkpt lat="47.96576" lon="7.27825">
        <ele>420.29813</ele>
        <time>2017-03-29T17:08:46Z</time>
      </trkpt>
      <trkpt lat="47.9655" lon="7.27822">
        <ele>420.65054</ele>
        <time>2017-03-29T17:08:51Z</time>
      </trkpt>
      <trkpt lat="47.96522" lon="7.27813">
        <ele>421.99698</ele>
        <time>2017-03-29T17:08:57Z</time>
      </trkpt>
      <trkpt lat="47.965" lon="7.2781">
        <ele>421.93848</ele>
        <time>2017-03-29T17:09:02Z</time>
      </trkpt>
      <trkpt lat="47.96471" lon="7.27827">
        <ele>421.5136</ele>
        <time>2017-03-29T17:09:08Z</time>
      </trkpt>
      <trkpt lat="47.96459" lon="7.27825">
        <ele>421.26648</ele>
        <time>2017-03-29T17:09:13Z</time>
      </trkpt>
      <trkpt lat="47.96427" lon="7.27837">
        <ele>421.33084</ele>
        <time>2017-03-29T17:09:19Z</time>
      </trkpt>
      <trkpt lat="47.96408" lon="7.27846">
        <ele>421.31097</ele>
        <time>2017-03-29T17:09:24Z</time>
      </trkpt>
      <trkpt lat="47.96395" lon="7.27858">
        <ele>420.69073</ele>
        <time>2017-03-29T17:09:30Z</time>
      </trkpt>
      <trkpt lat="47.96378" lon="7.27877">
        <ele>420.067</ele>
        <time>2017-03-29T17:09:35Z</time>
      </trkpt>
      <trkpt lat="47.96352" lon="7.27903">
        <ele>416.06302</ele>
        <time>2017-03-29T17:09:40Z</time>
      </trkpt>
      <trkpt lat="47.96321" lon="7.27955">
        <ele>408.2631</ele>
        <time>2017-03-29T17:09:46Z</time>
      </trkpt>
      <trkpt lat="47.9631" lon="7.27969">
        <ele>407.5074</ele>
        <time>2017-03-29T17:09:51Z</time>
      </trkpt>
      <trkpt lat="47.96296" lon="7.27967">
        <ele>406.5277</ele>
        <time>2017-03-29T17:09:56Z</time>
      </trkpt>
      <trkpt lat="47.96283" lon="7.27959">
        <ele>405.4653</ele>
        <time>2017-03-29T17:10:02Z</time>
      </trkpt>
      <trkpt lat="47.96284" lon="7.27956">
        <ele>404.8339</ele>
        <time>2017-03-29T17:10:08Z</time>
      </trkpt>
      <trkpt lat="47.96299" lon="7.27969">
        <ele>403.70316</ele>
        <time>2017-03-29T17:10:14Z</time>
      </trkpt>
      <trkpt lat="47.96301" lon="7.27972">
        <ele>403.4682</ele>
        <time>2017-03-29T17:10:19Z</time>
      </trkpt>
      <trkpt lat="47.96301" lon="7.27972">
        <ele>403.44354</ele>
        <time>2017-03-29T17:10:24Z</time>
      </trkpt>
      <trkpt lat="47.96301" lon="7.27972">
        <ele>403.44498</ele>
        <time>2017-03-29T17:10:30Z</time>
      </trkpt>
      <trkpt lat="47.96301" lon="7.27972">
        <ele>403.43887</ele>
        <time>2017-03-29T17:10:36Z</time>
      </trkpt>
      <trkpt lat="47.96301" lon="7.27972">
        <ele>403.4355</ele>
        <time>2017-03-29T17:10:41Z</time>
      </trkpt>
      <trkpt lat="47.96301" lon="7.27972">
        <ele>403.41882</ele>
        <time>2017-03-29T17:10:47Z</time>
      </trkpt>
      <trkpt lat="47.96301" lon="7.27972">
        <ele>403.416</ele>
        <time>2017-03-29T17:10:52Z</time>
      </trkpt>
      <trkpt lat="47.96301" lon="7.27972">
        <ele>403.4124</ele>
        <time>2017-03-29T17:10:58Z</time>
      </trkpt>
      <trkpt lat="47.96301" lon="7.27972">
        <ele>403.42917</ele>
        <time>2017-03-29T17:11:04Z</time>
      </trkpt>
      <trkpt lat="47.96301" lon="7.27972">
        <ele>403.4441</ele>
        <time>2017-03-29T17:11:09Z</time>
      </trkpt>
      <trkpt lat="47.96301" lon="7.27972">
        <ele>403.4263</ele>
        <time>2017-03-29T17:11:15Z</time>
      </trkpt>
      <trkpt lat="47.96301" lon="7.27972">
        <ele>403.33963</ele>
        <time>2017-03-29T17:11:20Z</time>
      </trkpt>
      <trkpt lat="47.96301" lon="7.27972">
        <ele>403.3177</ele>
        <time>2017-03-29T17:11:25Z</time>
      </trkpt>
      <trkpt lat="47.96298" lon="7.27988">
        <ele>403.30804</ele>
        <time>2017-03-29T17:11:31Z</time>
      </trkpt>
      <trkpt lat="47.96297" lon="7.2799">
        <ele>403.2751</ele>
        <time>2017-03-29T17:11:37Z</time>
      </trkpt>
      <trkpt lat="47.96297" lon="7.2799">
        <ele>403.25104</ele>
        <time>2017-03-29T17:11:42Z</time>
      </trkpt>
      <trkpt lat="47.96297" lon="7.2799">
        <ele>403.2499</ele>
        <time>2017-03-29T17:11:48Z</time>
      </trkpt>
      <trkpt lat="47.96297" lon="7.2799">
        <ele>403.25934</ele>
        <time>2017-03-29T17:11:53Z</time>
      </trkpt>
      <trkpt lat="47.96286" lon="7.28015">
        <ele>398.7304</ele>
        <time>2017-03-29T17:11:59Z</time>
      </trkpt>
      <trkpt lat="47.96258" lon="7.28065">
        <ele>392.9105</ele>
        <time>2017-03-29T17:12:05Z</time>
      </trkpt>
      <trkpt lat="47.96236" lon="7.28096">
        <ele>385.75015</ele>
        <time>2017-03-29T17:12:11Z</time>
      </trkpt>
      <trkpt lat="47.96215" lon="7.28097">
        <ele>384.13745</ele>
        <time>2017-03-29T17:12:16Z</time>
      </trkpt>
      <trkpt lat="47.96187" lon="7.2809">
        <ele>383.90094</ele>
        <time>2017-03-29T17:12:22Z</time>
      </trkpt>
      <trkpt lat="47.96156" lon="7.28083">
        <ele>383.20642</ele>
        <time>2017-03-29T17:12:28Z</time>
      </trkpt>
      <trkpt lat="47.96124" lon="7.28072">
        <ele>381.67264</ele>
        <time>2017-03-29T17:12:34Z</time>
      </trkpt>
      <trkpt lat="47.96096" lon="7.2805">
        <ele>382.6442</ele>
        <time>2017-03-29T17:12:40Z</time>
      </trkpt>
      <trkpt lat="47.96074" lon="7.2802">
        <ele>382.98697</ele>
        <time>2017-03-29T17:12:46Z</time>
      </trkpt>
      <trkpt lat="47.96053" lon="7.27998">
        <ele>379.68726</ele>
        <time>2017-03-29T17:12:52Z</time>
      </trkpt>
      <trkpt lat="47.96036" lon="7.27978">
        <ele>375.31378</ele>
        <time>2017-03-29T17:12:57Z</time>
      </trkpt>
      <trkpt lat="47.96012" lon="7.27952">
        <ele>373.30435</ele>
        <time>2017-03-29T17:13:03Z</time>
      </trkpt>
      <trkpt lat="47.95988" lon="7.27929">
        <ele>375.60184</ele>
        <time>2017-03-29T17:13:09Z</time>
      </trkpt>
      <trkpt lat="47.9597" lon="7.27914">
        <ele>376.87454</ele>
        <time>2017-03-29T17:13:14Z</time>
      </trkpt>
      <trkpt lat="47.95943" lon="7.27903">
        <ele>379.3814</ele>
        <time>2017-03-29T17:13:20Z</time>
      </trkpt>
      <trkpt lat="47.95919" lon="7.2789">
        <ele>380.32022</ele>
        <time>2017-03-29T17:13:25Z</time>
      </trkpt>
      <trkpt lat="47.95891" lon="7.27884">
        <ele>379.9732</ele>
        <time>2017-03-29T17:13:30Z</time>
      </trkpt>
      <trkpt lat="47.95859" lon="7.27887">
        <ele>381.91272</ele>
        <time>2017-03-29T17:13:36Z</time>
      </trkpt>
      <trkpt lat="47.95826" lon="7.27889">
        <ele>381.5165</ele>
        <time>2017-03-29T17:13:42Z</time>
      </trkpt>
      <trkpt lat="47.95804" lon="7.27878">
        <ele>381.3746</ele>
        <time>2017-03-29T17:13:47Z</time>
      </trkpt>
      <trkpt lat="47.95778" lon="7.27864">
        <ele>381.64063</ele>
        <time>2017-03-29T17:13:53Z</time>
      </trkpt>
      <trkpt lat="47.95749" lon="7.27846">
        <ele>382.0355</ele>
        <time>2017-03-29T17:13:59Z</time>
      </trkpt>
      <trkpt lat="47.95724" lon="7.27834">
        <ele>383.8485</ele>
        <time>2017-03-29T17:14:05Z</time>
      </trkpt>
      <trkpt lat="47.95702" lon="7.27834">
        <ele>384.34644</ele>
        <time>2017-03-29T17:14:11Z</time>
      </trkpt>
      <trkpt lat="47.95682" lon="7.27833">
        <ele>384.74384</ele>
        <time>2017-03-29T17:14:16Z</time>
      </trkpt>
      <trkpt lat="47.95656" lon="7.27822">
        <ele>384.40094</ele>
        <time>2017-03-29T17:14:22Z</time>
      </trkpt>
      <trkpt lat="47.95646" lon="7.2782">
        <ele>384.12915</ele>
        <time>2017-03-29T17:14:28Z</time>
      </trkpt>
      <trkpt lat="47.95638" lon="7.27823">
        <ele>383.99606</ele>
        <time>2017-03-29T17:14:33Z</time>
      </trkpt>
      <trkpt lat="47.95627" lon="7.27825">
        <ele>383.78232</ele>
        <time>2017-03-29T17:14:39Z</time>
      </trkpt>
      <trkpt lat="47.9561" lon="7.27826">
        <ele>383.12296</ele>
        <time>2017-03-29T17:14:44Z</time>
      </trkpt>
      <trkpt lat="47.95601" lon="7.27826">
        <ele>382.81976</ele>
        <time>2017-03-29T17:14:49Z</time>
      </trkpt>
      <trkpt lat="47.95587" lon="7.27825">
        <ele>382.28784</ele>
        <time>2017-03-29T17:14:55Z</time>
      </trkpt>
      <trkpt lat="47.95573" lon="7.27826">
        <ele>381.89105</ele>
        <time>2017-03-29T17:15:01Z</time>
      </trkpt>
      <trkpt lat="47.95556" lon="7.2783">
        <ele>381.30023</ele>
        <time>2017-03-29T17:15:07Z</time>
      </trkpt>
      <trkpt lat="47.95542" lon="7.2783">
        <ele>380.26157</ele>
        <time>2017-03-29T17:15:13Z</time>
      </trkpt>
      <trkpt lat="47.95521" lon="7.27835">
        <ele>372.7502</ele>
        <time>2017-03-29T17:15:19Z</time>
      </trkpt>
      <trkpt lat="47.955" lon="7.27841">
        <ele>372.47986</ele>
        <time>2017-03-29T17:15:25Z</time>
      </trkpt>
      <trkpt lat="47.95478" lon="7.27846">
        <ele>370.39307</ele>
        <time>2017-03-29T17:15:31Z</time>
      </trkpt>
      <trkpt lat="47.95444" lon="7.27848">
        <ele>366.87427</ele>
        <time>2017-03-29T17:15:37Z</time>
      </trkpt>
      <trkpt lat="47.95406" lon="7.27859">
        <ele>362.6285</ele>
        <time>2017-03-29T17:15:43Z</time>
      </trkpt>
      <trkpt lat="47.95373" lon="7.27861">
        <ele>358.77573</ele>
        <time>2017-03-29T17:15:49Z</time>
      </trkpt>
      <trkpt lat="47.95361" lon="7.27863">
        <ele>358.30396</ele>
        <time>2017-03-29T17:15:54Z</time>
      </trkpt>
      <trkpt lat="47.95363" lon="7.27873">
        <ele>357.8931</ele>
        <time>2017-03-29T17:16:00Z</time>
      </trkpt>
      <trkpt lat="47.95367" lon="7.27887">
        <ele>357.4582</ele>
        <time>2017-03-29T17:16:05Z</time>
      </trkpt>
      <trkpt lat="47.9537" lon="7.27893">
        <ele>357.12396</ele>
        <time>2017-03-29T17:16:11Z</time>
      </trkpt>
      <trkpt lat="47.9537" lon="7.27893">
        <ele>357.21774</ele>
        <time>2017-03-29T17:16:17Z</time>
      </trkpt>
      <trkpt lat="47.95379" lon="7.27905">
        <ele>357.45602</ele>
        <time>2017-03-29T17:16:22Z</time>
      </trkpt>
      <trkpt lat="47.95387" lon="7.27915">
        <ele>357.54358</ele>
        <time>2017-03-29T17:16:27Z</time>
      </trkpt>
      <trkpt lat="47.95401" lon="7.27927">
        <ele>357.64734</ele>
        <time>2017-03-29T17:16:33Z</time>
      </trkpt>
      <trkpt lat="47.95414" lon="7.27941">
        <ele>357.67914</ele>
        <time>2017-03-29T17:16:39Z</time>
      </trkpt>
      <trkpt lat="47.9543" lon="7.27961">
        <ele>357.9408</ele>
        <time>2017-03-29T17:16:44Z</time>
      </trkpt>
      <trkpt lat="47.95448" lon="7.2798">
        <ele>358.4217</ele>
        <time>2017-03-29T17:16:50Z</time>
      </trkpt>
      <trkpt lat="47.95462" lon="7.27993">
        <ele>358.5182</ele>
        <time>2017-03-29T17:16:56Z</time>
      </trkpt>
      <trkpt lat="47.95473" lon="7.28004">
        <ele>358.55573</ele>
        <time>2017-03-29T17:17:02Z</time>
      </trkpt>
      <trkpt lat="47.95483" lon="7.28013">
        <ele>358.6985</ele>
        <time>2017-03-29T17:17:07Z</time>
      </trkpt>
      <trkpt lat="47.95502" lon="7.28018">
        <ele>359.31015</ele>
        <time>2017-03-29T17:17:13Z</time>
      </trkpt>
      <trkpt lat="47.95522" lon="7.28023">
        <ele>360.72113</ele>
        <time>2017-03-29T17:17:18Z</time>
      </trkpt>
      <trkpt lat="47.95547" lon="7.28029">
        <ele>362.60962</ele>
        <time>2017-03-29T17:17:23Z</time>
      </trkpt>
      <trkpt lat="47.95564" lon="7.28036">
        <ele>362.79333</ele>
        <time>2017-03-29T17:17:29Z</time>
      </trkpt>
      <trkpt lat="47.95576" lon="7.2804">
        <ele>363.12903</ele>
        <time>2017-03-29T17:17:35Z</time>
      </trkpt>
      <trkpt lat="47.9559" lon="7.28043">
        <ele>363.23752</ele>
        <time>2017-03-29T17:17:41Z</time>
      </trkpt>
      <trkpt lat="47.95614" lon="7.28048">
        <ele>364.62643</ele>
        <time>2017-03-29T17:17:47Z</time>
      </trkpt>
      <trkpt lat="47.95641" lon="7.2806">
        <ele>364.88702</ele>
        <time>2017-03-29T17:17:53Z</time>
      </trkpt>
      <trkpt lat="47.95687" lon="7.28084">
        <ele>361.82693</ele>
        <time>2017-03-29T17:17:59Z</time>
      </trkpt>
      <trkpt lat="47.95721" lon="7.28098">
        <ele>360.41348</ele>
        <time>2017-03-29T17:18:04Z</time>
      </trkpt>
      <trkpt lat="47.95755" lon="7.28112">
        <ele>363.07172</ele>
        <time>2017-03-29T17:18:10Z</time>
      </trkpt>
      <trkpt lat="47.95767" lon="7.28116">
        <ele>364.38168</ele>
        <time>2017-03-29T17:18:15Z</time>
      </trkpt>
      <trkpt lat="47.95779" lon="7.28122">
        <ele>364.54733</ele>
        <time>2017-03-29T17:18:21Z</time>
      </trkpt>
      <trkpt lat="47.95794" lon="7.28132">
        <ele>364.65323</ele>
        <time>2017-03-29T17:18:27Z</time>
      </trkpt>
      <trkpt lat="47.95807" lon="7.28144">
        <ele>364.91266</ele>
        <time>2017-03-29T17:18:33Z</time>
      </trkpt>
      <trkpt lat="47.95829" lon="7.28153">
        <ele>366.3579</ele>
        <time>2017-03-29T17:18:39Z</time>
      </trkpt>
      <trkpt lat="47.95846" lon="7.28156">
        <ele>366.76962</ele>
        <time>2017-03-29T17:18:44Z</time>
      </trkpt>
      <trkpt lat="47.95863" lon="7.2816">
        <ele>367.083</ele>
        <time>2017-03-29T17:18:50Z</time>
      </trkpt>
      <trkpt lat="47.95873" lon="7.28165">
        <ele>367.4182</ele>
        <time>2017-03-29T17:18:55Z</time>
      </trkpt>
      <trkpt lat="47.95891" lon="7.28174">
        <ele>367.8853</ele>
        <time>2017-03-29T17:19:01Z</time>
      </trkpt>
      <trkpt lat="47.95914" lon="7.28185">
        <ele>368.03723</ele>
        <time>2017-03-29T17:19:07Z</time>
      </trkpt>
      <trkpt lat="47.95931" lon="7.28188">
        <ele>367.80148</ele>
        <time>2017-03-29T17:19:12Z</time>
      </trkpt>
      <trkpt lat="47.95949" lon="7.28189">
        <ele>367.57898</ele>
        <time>2017-03-29T17:19:18Z</time>
      </trkpt>
      <trkpt lat="47.95965" lon="7.2819">
        <ele>367.66443</ele>
        <time>2017-03-29T17:19:24Z</time>
      </trkpt>
      <trkpt lat="47.95981" lon="7.28187">
        <ele>367.61905</ele>
        <time>2017-03-29T17:19:29Z</time>
      </trkpt>
      <trkpt lat="47.96001" lon="7.28191">
        <ele>366.468</ele>
        <time>2017-03-29T17:19:34Z</time>
      </trkpt>
      <trkpt lat="47.96021" lon="7.28214">
        <ele>365.68182</ele>
        <time>2017-03-29T17:19:40Z</time>
      </trkpt>
      <trkpt lat="47.96043" lon="7.28254">
        <ele>360.4356</ele>
        <time>2017-03-29T17:19:45Z</time>
      </trkpt>
      <trkpt lat="47.96079" lon="7.28285">
        <ele>356.26102</ele>
        <time>2017-03-29T17:19:51Z</time>
      </trkpt>
      <trkpt lat="47.96114" lon="7.28311">
        <ele>354.87375</ele>
        <time>2017-03-29T17:19:57Z</time>
      </trkpt>
      <trkpt lat="47.96146" lon="7.28337">
        <ele>351.75168</ele>
        <time>2017-03-29T17:20:03Z</time>
      </trkpt>
      <trkpt lat="47.96179" lon="7.28349">
        <ele>349.3025</ele>
        <time>2017-03-29T17:20:09Z</time>
      </trkpt>
      <trkpt lat="47.96203" lon="7.28349">
        <ele>348.3792</ele>
        <time>2017-03-29T17:20:14Z</time>
      </trkpt>
      <trkpt lat="47.96224" lon="7.28352">
        <ele>348.23453</ele>
        <time>2017-03-29T17:20:20Z</time>
      </trkpt>
      <trkpt lat="47.96238" lon="7.28354">
        <ele>348.3059</ele>
        <time>2017-03-29T17:20:25Z</time>
      </trkpt>
      <trkpt lat="47.9625" lon="7.28357">
        <ele>348.51144</ele>
        <time>2017-03-29T17:20:31Z</time>
      </trkpt>
      <trkpt lat="47.96266" lon="7.28361">
        <ele>348.97873</ele>
        <time>2017-03-29T17:20:37Z</time>
      </trkpt>
      <trkpt lat="47.96283" lon="7.28367">
        <ele>350.23892</ele>
        <time>2017-03-29T17:20:43Z</time>
      </trkpt>
      <trkpt lat="47.96305" lon="7.28379">
        <ele>352.25977</ele>
        <time>2017-03-29T17:20:48Z</time>
      </trkpt>
      <trkpt lat="47.96335" lon="7.28388">
        <ele>352.47974</ele>
        <time>2017-03-29T17:20:54Z</time>
      </trkpt>
      <trkpt lat="47.96352" lon="7.28392">
        <ele>352.63382</ele>
        <time>2017-03-29T17:20:59Z</time>
      </trkpt>
      <trkpt lat="47.96357" lon="7.28404">
        <ele>352.72583</ele>
        <time>2017-03-29T17:21:05Z</time>
      </trkpt>
      <trkpt lat="47.9635" lon="7.2844">
        <ele>352.29227</ele>
        <time>2017-03-29T17:21:10Z</time>
      </trkpt>
      <trkpt lat="47.96354" lon="7.28475">
        <ele>346.90973</ele>
        <time>2017-03-29T17:21:16Z</time>
      </trkpt>
      <trkpt lat="47.96375" lon="7.28483">
        <ele>342.68018</ele>
        <time>2017-03-29T17:21:22Z</time>
      </trkpt>
      <trkpt lat="47.964" lon="7.28486">
        <ele>344.52774</ele>
        <time>2017-03-29T17:21:28Z</time>
      </trkpt>
      <trkpt lat="47.96426" lon="7.28497">
        <ele>345.92725</ele>
        <time>2017-03-29T17:21:34Z</time>
      </trkpt>
      <trkpt lat="47.96439" lon="7.28501">
        <ele>345.9529</ele>
        <time>2017-03-29T17:21:39Z</time>
      </trkpt>
      <trkpt lat="47.96438" lon="7.28491">
        <ele>346.15393</ele>
        <time>2017-03-29T17:21:45Z</time>
      </trkpt>
      <trkpt lat="47.96426" lon="7.28488">
        <ele>346.1757</ele>
        <time>2017-03-29T17:21:51Z</time>
      </trkpt>
      <trkpt lat="47.96418" lon="7.28502">
        <ele>346.61902</ele>
        <time>2017-03-29T17:21:57Z</time>
      </trkpt>
      <trkpt lat="47.96434" lon="7.28534">
        <ele>345.4896</ele>
        <time>2017-03-29T17:22:03Z</time>
      </trkpt>
      <trkpt lat="47.96452" lon="7.2854">
        <ele>345.10623</ele>
        <time>2017-03-29T17:22:09Z</time>
      </trkpt>
      <trkpt lat="47.96467" lon="7.28543">
        <ele>344.87506</ele>
        <time>2017-03-29T17:22:15Z</time>
      </trkpt>
      <trkpt lat="47.96487" lon="7.28549">
        <ele>344.57147</ele>
        <time>2017-03-29T17:22:21Z</time>
      </trkpt>
      <trkpt lat="47.96506" lon="7.28554">
        <ele>343.31863</ele>
        <time>2017-03-29T17:22:27Z</time>
      </trkpt>
      <trkpt lat="47.96525" lon="7.2856">
        <ele>342.07996</ele>
        <time>2017-03-29T17:22:32Z</time>
      </trkpt>
      <trkpt lat="47.96546" lon="7.28568">
        <ele>342.96198</ele>
        <time>2017-03-29T17:22:37Z</time>
      </trkpt>
      <trkpt lat="47.96566" lon="7.28571">
        <ele>343.01492</ele>
        <time>2017-03-29T17:22:42Z</time>
      </trkpt>
      <trkpt lat="47.96581" lon="7.2859">
        <ele>342.9557</ele>
        <time>2017-03-29T17:22:47Z</time>
      </trkpt>
      <trkpt lat="47.96578" lon="7.28637">
        <ele>339.33777</ele>
        <time>2017-03-29T17:22:53Z</time>
      </trkpt>
      <trkpt lat="47.96573" lon="7.28713">
        <ele>333.6123</ele>
        <time>2017-03-29T17:22:59Z</time>
      </trkpt>
      <trkpt lat="47.96565" lon="7.28804">
        <ele>327.68448</ele>
        <time>2017-03-29T17:23:05Z</time>
      </trkpt>
      <trkpt lat="47.96534" lon="7.28903">
        <ele>321.7589</ele>
        <time>2017-03-29T17:23:11Z</time>
      </trkpt>
      <trkpt lat="47.96502" lon="7.28998">
        <ele>317.49817</ele>
        <time>2017-03-29T17:23:16Z</time>
      </trkpt>
      <trkpt lat="47.96489" lon="7.29072">
        <ele>308.1428</ele>
        <time>2017-03-29T17:23:22Z</time>
      </trkpt>
      <trkpt lat="47.96501" lon="7.291">
        <ele>306.88245</ele>
        <time>2017-03-29T17:23:28Z</time>
      </trkpt>
      <trkpt lat="47.96502" lon="7.29102">
        <ele>306.48624</ele>
        <time>2017-03-29T17:23:33Z</time>
      </trkpt>
      <trkpt lat="47.96502" lon="7.29102">
        <ele>306.41342</ele>
        <time>2017-03-29T17:23:39Z</time>
      </trkpt>
      <trkpt lat="47.96502" lon="7.29102">
        <ele>306.35324</ele>
        <time>2017-03-29T17:23:44Z</time>
      </trkpt>
      <trkpt lat="47.965" lon="7.29108">
        <ele>305.9726</ele>
        <time>2017-03-29T17:23:50Z</time>
      </trkpt>
      <trkpt lat="47.96487" lon="7.29119">
        <ele>302.95447</ele>
        <time>2017-03-29T17:23:56Z</time>
      </trkpt>
      <trkpt lat="47.9647" lon="7.29152">
        <ele>298.14136</ele>
        <time>2017-03-29T17:24:01Z</time>
      </trkpt>
      <trkpt lat="47.96456" lon="7.29192">
        <ele>291.9802</ele>
        <time>2017-03-29T17:24:06Z</time>
      </trkpt>
      <trkpt lat="47.96443" lon="7.29244">
        <ele>286.28818</ele>
        <time>2017-03-29T17:24:12Z</time>
      </trkpt>
      <trkpt lat="47.96426" lon="7.29291">
        <ele>281.24924</ele>
        <time>2017-03-29T17:24:18Z</time>
      </trkpt>
      <trkpt lat="47.96408" lon="7.29335">
        <ele>272.89377</ele>
        <time>2017-03-29T17:24:24Z</time>
      </trkpt>
      <trkpt lat="47.96401" lon="7.29341">
        <ele>272.5436</ele>
        <time>2017-03-29T17:24:30Z</time>
      </trkpt>
      <trkpt lat="47.96401" lon="7.29341">
        <ele>272.51654</ele>
        <time>2017-03-29T17:24:36Z</time>
      </trkpt>
      <trkpt lat="47.96401" lon="7.29341">
        <ele>272.5007</ele>
        <time>2017-03-29T17:24:42Z</time>
      </trkpt>
      <trkpt lat="47.96401" lon="7.29341">
        <ele>272.46915</ele>
        <time>2017-03-29T17:24:47Z</time>
      </trkpt>
      <trkpt lat="47.96401" lon="7.29341">
        <ele>272.3782</ele>
        <time>2017-03-29T17:24:53Z</time>
      </trkpt>
      <trkpt lat="47.96401" lon="7.29341">
        <ele>272.342</ele>
        <time>2017-03-29T17:24:59Z</time>
      </trkpt>
      <trkpt lat="47.96401" lon="7.29341">
        <ele>272.32748</ele>
        <time>2017-03-29T17:25:05Z</time>
      </trkpt>
      <trkpt lat="47.96401" lon="7.29341">
        <ele>272.31467</ele>
        <time>2017-03-29T17:25:10Z</time>
      </trkpt>
      <trkpt lat="47.96401" lon="7.29341">
        <ele>272.2903</ele>
        <time>2017-03-29T17:25:16Z</time>
      </trkpt>
      <trkpt lat="47.96401" lon="7.29341">
        <ele>272.24423</ele>
        <time>2017-03-29T17:25:22Z</time>
      </trkpt>
      <trkpt lat="47.96401" lon="7.29341">
        <ele>272.11435</ele>
        <time>2017-03-29T17:25:28Z</time>
      </trkpt>
      <trkpt lat="47.96394" lon="7.29348">
        <ele>271.9764</ele>
        <time>2017-03-29T17:25:34Z</time>
      </trkpt>
      <trkpt lat="47.96373" lon="7.29341">
        <ele>271.11642</ele>
        <time>2017-03-29T17:25:40Z</time>
      </trkpt>
      <trkpt lat="47.96336" lon="7.29327">
        <ele>272.5081</ele>
        <time>2017-03-29T17:25:46Z</time>
      </trkpt>
      <trkpt lat="47.96278" lon="7.29313">
        <ele>268.7209</ele>
        <time>2017-03-29T17:25:52Z</time>
      </trkpt>
      <trkpt lat="47.96244" lon="7.29322">
        <ele>266.27832</ele>
        <time>2017-03-29T17:25:57Z</time>
      </trkpt>
      <trkpt lat="47.9623" lon="7.29362">
        <ele>265.46985</ele>
        <time>2017-03-29T17:26:03Z</time>
      </trkpt>
      <trkpt lat="47.96245" lon="7.29397">
        <ele>259.82797</ele>
        <time>2017-03-29T17:26:08Z</time>
      </trkpt>
      <trkpt lat="47.96258" lon="7.29425">
        <ele>257.71347</ele>
        <time>2017-03-29T17:26:14Z</time>
      </trkpt>
      <trkpt lat="47.96266" lon="7.29445">
        <ele>257.97043</ele>
        <time>2017-03-29T17:26:19Z</time>
      </trkpt>
      <trkpt lat="47.96269" lon="7.29455">
        <ele>258.5654</ele>
        <time>2017-03-29T17:26:25Z</time>
      </trkpt>
      <trkpt lat="47.96272" lon="7.29463">
        <ele>259.18158</ele>
        <time>2017-03-29T17:26:30Z</time>
      </trkpt>
      <trkpt lat="47.96283" lon="7.29485">
        <ele>260.00894</ele>
        <time>2017-03-29T17:26:36Z</time>
      </trkpt>
      <trkpt lat="47.96305" lon="7.29512">
        <ele>262.63934</ele>
        <time>2017-03-29T17:26:42Z</time>
      </trkpt>
      <trkpt lat="47.9633" lon="7.29529">
        <ele>262.93317</ele>
        <time>2017-03-29T17:26:48Z</time>
      </trkpt>
      <trkpt lat="47.9635" lon="7.29543">
        <ele>264.16418</ele>
        <time>2017-03-29T17:26:54Z</time>
      </trkpt>
      <trkpt lat="47.96372" lon="7.2956">
        <ele>264.56763</ele>
        <time>2017-03-29T17:26:59Z</time>
      </trkpt>
      <trkpt lat="47.96391" lon="7.29577">
        <ele>265.33215</ele>
        <time>2017-03-29T17:27:04Z</time>
      </trkpt>
      <trkpt lat="47.9641" lon="7.29599">
        <ele>272.20505</ele>
        <time>2017-03-29T17:27:10Z</time>
      </trkpt>
      <trkpt lat="47.96423" lon="7.29621">
        <ele>274.04294</ele>
        <time>2017-03-29T17:27:15Z</time>
      </trkpt>
      <trkpt lat="47.96436" lon="7.29639">
        <ele>273.99564</ele>
        <time>2017-03-29T17:27:20Z</time>
      </trkpt>
      <trkpt lat="47.96439" lon="7.29656">
        <ele>273.27005</ele>
        <time>2017-03-29T17:27:26Z</time>
      </trkpt>
      <trkpt lat="47.96439" lon="7.29668">
        <ele>272.8678</ele>
        <time>2017-03-29T17:27:31Z</time>
      </trkpt>
      <trkpt lat="47.96438" lon="7.2968">
        <ele>272.6909</ele>
        <time>2017-03-29T17:27:37Z</time>
      </trkpt>
      <trkpt lat="47.96437" lon="7.29701">
        <ele>272.66193</ele>
        <time>2017-03-29T17:27:43Z</time>
      </trkpt>
      <trkpt lat="47.9644" lon="7.29722">
        <ele>272.53174</ele>
        <time>2017-03-29T17:27:49Z</time>
      </trkpt>
      <trkpt lat="47.9645" lon="7.29735">
        <ele>272.28073</ele>
        <time>2017-03-29T17:27:55Z</time>
      </trkpt>
      <trkpt lat="47.96468" lon="7.29742">
        <ele>271.68414</ele>
        <time>2017-03-29T17:28:01Z</time>
      </trkpt>
      <trkpt lat="47.9649" lon="7.29758">
        <ele>270.16104</ele>
        <time>2017-03-29T17:28:06Z</time>
      </trkpt>
      <trkpt lat="47.96524" lon="7.2979">
        <ele>265.71277</ele>
        <time>2017-03-29T17:28:12Z</time>
      </trkpt>
      <trkpt lat="47.96556" lon="7.29802">
        <ele>265.07382</ele>
        <time>2017-03-29T17:28:18Z</time>
      </trkpt>
      <trkpt lat="47.96581" lon="7.29792">
        <ele>267.33365</ele>
        <time>2017-03-29T17:28:24Z</time>
      </trkpt>
      <trkpt lat="47.96607" lon="7.29808">
        <ele>265.16147</ele>
        <time>2017-03-29T17:28:30Z</time>
      </trkpt>
      <trkpt lat="47.96623" lon="7.29813">
        <ele>262.60455</ele>
        <time>2017-03-29T17:28:36Z</time>
      </trkpt>
      <trkpt lat="47.96634" lon="7.29818">
        <ele>262.6984</ele>
        <time>2017-03-29T17:28:42Z</time>
      </trkpt>
      <trkpt lat="47.96641" lon="7.29821">
        <ele>262.89227</ele>
        <time>2017-03-29T17:28:47Z</time>
      </trkpt>
      <trkpt lat="47.96651" lon="7.29823">
        <ele>263.3342</ele>
        <time>2017-03-29T17:28:53Z</time>
      </trkpt>
      <trkpt lat="47.96662" lon="7.29823">
        <ele>263.642</ele>
        <time>2017-03-29T17:28:58Z</time>
      </trkpt>
      <trkpt lat="47.96687" lon="7.29826">
        <ele>266.40186</ele>
        <time>2017-03-29T17:29:04Z</time>
      </trkpt>
      <trkpt lat="47.96713" lon="7.29828">
        <ele>266.52844</ele>
        <time>2017-03-29T17:29:09Z</time>
      </trkpt>
      <trkpt lat="47.96751" lon="7.29834">
        <ele>264.38846</ele>
        <time>2017-03-29T17:29:15Z</time>
      </trkpt>
      <trkpt lat="47.96781" lon="7.29845">
        <ele>263.6641</ele>
        <time>2017-03-29T17:29:20Z</time>
      </trkpt>
      <trkpt lat="47.96822" lon="7.29867">
        <ele>261.56317</ele>
        <time>2017-03-29T17:29:26Z</time>
      </trkpt>
      <trkpt lat="47.96858" lon="7.29905">
        <ele>256.35242</ele>
        <time>2017-03-29T17:29:32Z</time>
      </trkpt>
      <trkpt lat="47.96861" lon="7.29949">
        <ele>251.88255</ele>
        <time>2017-03-29T17:29:38Z</time>
      </trkpt>
      <trkpt lat="47.96866" lon="7.29971">
        <ele>251.74144</ele>
        <time>2017-03-29T17:29:43Z</time>
      </trkpt>
      <trkpt lat="47.96873" lon="7.29997">
        <ele>251.45615</ele>
        <time>2017-03-29T17:29:49Z</time>
      </trkpt>
      <trkpt lat="47.96885" lon="7.30028">
        <ele>245.89105</ele>
        <time>2017-03-29T17:29:55Z</time>
      </trkpt>
      <trkpt lat="47.96897" lon="7.30055">
        <ele>243.70398</ele>
        <time>2017-03-29T17:30:00Z</time>
      </trkpt>
      <trkpt lat="47.96924" lon="7.30087">
        <ele>245.04822</ele>
        <time>2017-03-29T17:30:06Z</time>
      </trkpt>
      <trkpt lat="47.96926" lon="7.30136">
        <ele>246.67024</ele>
        <time>2017-03-29T17:30:12Z</time>
      </trkpt>
      <trkpt lat="47.96919" lon="7.30166">
        <ele>248.6574</ele>
        <time>2017-03-29T17:30:17Z</time>
      </trkpt>
      <trkpt lat="47.96901" lon="7.30178">
        <ele>249.06187</ele>
        <time>2017-03-29T17:30:23Z</time>
      </trkpt>
      <trkpt lat="47.96884" lon="7.30189">
        <ele>251.14949</ele>
        <time>2017-03-29T17:30:29Z</time>
      </trkpt>
      <trkpt lat="47.96865" lon="7.30196">
        <ele>251.6519</ele>
        <time>2017-03-29T17:30:35Z</time>
      </trkpt>
      <trkpt lat="47.96839" lon="7.30202">
        <ele>251.38306</ele>
        <time>2017-03-29T17:30:41Z</time>
      </trkpt>
      <trkpt lat="47.96824" lon="7.302">
        <ele>251.17656</ele>
        <time>2017-03-29T17:30:47Z</time>
      </trkpt>
      <trkpt lat="47.96804" lon="7.30201">
        <ele>250.70651</ele>
        <time>2017-03-29T17:30:52Z</time>
      </trkpt>
      <trkpt lat="47.96784" lon="7.30204">
        <ele>250.11319</ele>
        <time>2017-03-29T17:30:58Z</time>
      </trkpt>
      <trkpt lat="47.96764" lon="7.30197">
        <ele>249.58226</ele>
        <time>2017-03-29T17:31:03Z</time>
      </trkpt>
      <trkpt lat="47.96745" lon="7.30186">
        <ele>247.85986</ele>
        <time>2017-03-29T17:31:08Z</time>
      </trkpt>
      <trkpt lat="47.96728" lon="7.302">
        <ele>247.3214</ele>
        <time>2017-03-29T17:31:13Z</time>
      </trkpt>
      <trkpt lat="47.9672" lon="7.30236">
        <ele>245.8364</ele>
        <time>2017-03-29T17:31:19Z</time>
      </trkpt>
      <trkpt lat="47.9671" lon="7.30294">
        <ele>243.36798</ele>
        <time>2017-03-29T17:31:25Z</time>
      </trkpt>
      <trkpt lat="47.9671" lon="7.30294">
        <ele>243.53677</ele>
        <time>2017-03-29T17:31:30Z</time>
      </trkpt>
      <trkpt lat="47.96682" lon="7.30287">
        <ele>244.0298</ele>
        <time>2017-03-29T17:31:36Z</time>
      </trkpt>
      <trkpt lat="47.96658" lon="7.30277">
        <ele>242.95088</ele>
        <time>2017-03-29T17:31:41Z</time>
      </trkpt>
      <trkpt lat="47.96639" lon="7.30311">
        <ele>241.24529</ele>
        <time>2017-03-29T17:31:47Z</time>
      </trkpt>
      <trkpt lat="47.96631" lon="7.30365">
        <ele>239.63678</ele>
        <time>2017-03-29T17:31:53Z</time>
      </trkpt>
      <trkpt lat="47.96623" lon="7.3041">
        <ele>238.63199</ele>
        <time>2017-03-29T17:31:59Z</time>
      </trkpt>
      <trkpt lat="47.96613" lon="7.30469">
        <ele>238.57137</ele>
        <time>2017-03-29T17:32:05Z</time>
      </trkpt>
      <trkpt lat="47.96605" lon="7.30512">
        <ele>238.69672</ele>
        <time>2017-03-29T17:32:10Z</time>
      </trkpt>
      <trkpt lat="47.96594" lon="7.30565">
        <ele>241.40648</ele>
        <time>2017-03-29T17:32:16Z</time>
      </trkpt>
      <trkpt lat="47.96564" lon="7.30587">
        <ele>243.12726</ele>
        <time>2017-03-29T17:32:21Z</time>
      </trkpt>
      <trkpt lat="47.96528" lon="7.30625">
        <ele>243.58224</ele>
        <time>2017-03-29T17:32:27Z</time>
      </trkpt>
      <trkpt lat="47.96498" lon="7.30656">
        <ele>241.87343</ele>
        <time>2017-03-29T17:32:32Z</time>
      </trkpt>
      <trkpt lat="47.96458" lon="7.30694">
        <ele>240.98177</ele>
        <time>2017-03-29T17:32:38Z</time>
      </trkpt>
      <trkpt lat="47.96422" lon="7.30719">
        <ele>241.27301</ele>
        <time>2017-03-29T17:32:43Z</time>
      </trkpt>
      <trkpt lat="47.96381" lon="7.30712">
        <ele>239.80505</ele>
        <time>2017-03-29T17:32:49Z</time>
      </trkpt>
      <trkpt lat="47.96348" lon="7.30706">
        <ele>239.57973</ele>
        <time>2017-03-29T17:32:55Z</time>
      </trkpt>
      <trkpt lat="47.96324" lon="7.30702">
        <ele>239.84753</ele>
        <time>2017-03-29T17:33:00Z</time>
      </trkpt>
      <trkpt lat="47.96301" lon="7.30697">
        <ele>239.77615</ele>
        <time>2017-03-29T17:33:05Z</time>
      </trkpt>
      <trkpt lat="47.96275" lon="7.30691">
        <ele>239.61797</ele>
        <time>2017-03-29T17:33:11Z</time>
      </trkpt>
      <trkpt lat="47.96253" lon="7.30686">
        <ele>239.15965</ele>
        <time>2017-03-29T17:33:17Z</time>
      </trkpt>
      <trkpt lat="47.96246" lon="7.30672">
        <ele>239.39357</ele>
        <time>2017-03-29T17:33:23Z</time>
      </trkpt>
      <trkpt lat="47.96248" lon="7.30657">
        <ele>239.81494</ele>
        <time>2017-03-29T17:33:29Z</time>
      </trkpt>
      <trkpt lat="47.96246" lon="7.30646">
        <ele>240.77603</ele>
        <time>2017-03-29T17:33:35Z</time>
      </trkpt>
      <trkpt lat="47.96249" lon="7.30624">
        <ele>241.55933</ele>
        <time>2017-03-29T17:33:41Z</time>
      </trkpt>
      <trkpt lat="47.96251" lon="7.30589">
        <ele>243.63327</ele>
        <time>2017-03-29T17:33:47Z</time>
      </trkpt>
      <trkpt lat="47.96254" lon="7.30549">
        <ele>247.53206</ele>
        <time>2017-03-29T17:33:53Z</time>
      </trkpt>
      <trkpt lat="47.96243" lon="7.305">
        <ele>246.83194</ele>
        <time>2017-03-29T17:33:59Z</time>
      </trkpt>
      <trkpt lat="47.96219" lon="7.30495">
        <ele>247.9834</ele>
        <time>2017-03-29T17:34:04Z</time>
      </trkpt>
      <trkpt lat="47.96214" lon="7.30499">
        <ele>248.07666</ele>
        <time>2017-03-29T17:34:10Z</time>
      </trkpt>
      <trkpt lat="47.96214" lon="7.30499">
        <ele>248.10558</ele>
        <time>2017-03-29T17:34:16Z</time>
      </trkpt>
      <trkpt lat="47.96214" lon="7.30499">
        <ele>248.17363</ele>
        <time>2017-03-29T17:34:22Z</time>
      </trkpt>
      <trkpt lat="47.96214" lon="7.30499">
        <ele>248.3462</ele>
        <time>2017-03-29T17:34:28Z</time>
      </trkpt>
      <trkpt lat="47.96214" lon="7.30499">
        <ele>248.43071</ele>
        <time>2017-03-29T17:34:33Z</time>
      </trkpt>
      <trkpt lat="47.96214" lon="7.30499">
        <ele>248.61804</ele>
        <time>2017-03-29T17:34:39Z</time>
      </trkpt>
      <trkpt lat="47.96214" lon="7.30499">
        <ele>248.70357</ele>
        <time>2017-03-29T17:34:45Z</time>
      </trkpt>
      <trkpt lat="47.96214" lon="7.30499">
        <ele>248.72981</ele>
        <time>2017-03-29T17:34:51Z</time>
      </trkpt>
      <trkpt lat="47.96214" lon="7.30499">
        <ele>248.72867</ele>
        <time>2017-03-29T17:34:57Z</time>
      </trkpt>
      <trkpt lat="47.96214" lon="7.30499">
        <ele>248.75896</ele>
        <time>2017-03-29T17:35:02Z</time>
      </trkpt>
      <trkpt lat="47.96213" lon="7.30508">
        <ele>248.79636</ele>
        <time>2017-03-29T17:35:08Z</time>
      </trkpt>
      <trkpt lat="47.96211" lon="7.30521">
        <ele>248.99329</ele>
        <time>2017-03-29T17:35:14Z</time>
      </trkpt>
      <trkpt lat="47.96213" lon="7.30528">
        <ele>249.01363</ele>
        <time>2017-03-29T17:35:19Z</time>
      </trkpt>
      <trkpt lat="47.96212" lon="7.30535">
        <ele>249.2607</ele>
        <time>2017-03-29T17:35:25Z</time>
      </trkpt>
      <trkpt lat="47.96207" lon="7.30547">
        <ele>249.31479</ele>
        <time>2017-03-29T17:35:31Z</time>
      </trkpt>
      <trkpt lat="47.96203" lon="7.30554">
        <ele>248.9781</ele>
        <time>2017-03-29T17:35:36Z</time>
      </trkpt>
      <trkpt lat="47.96198" lon="7.30564">
        <ele>248.58119</ele>
        <time>2017-03-29T17:35:42Z</time>
      </trkpt>
      <trkpt lat="47.96195" lon="7.30572">
        <ele>248.86514</ele>
        <time>2017-03-29T17:35:47Z</time>
      </trkpt>
      <trkpt lat="47.96201" lon="7.30577">
        <ele>249.16986</ele>
        <time>2017-03-29T17:35:52Z</time>
      </trkpt>
      <trkpt lat="47.96204" lon="7.30566">
        <ele>249.12497</ele>
        <time>2017-03-29T17:35:58Z</time>
      </trkpt>
      <trkpt lat="47.96211" lon="7.30559">
        <ele>249.14008</ele>
        <time>2017-03-29T17:36:04Z</time>
      </trkpt>
      <trkpt lat="47.96211" lon="7.30559">
        <ele>249.02446</ele>
        <time>2017-03-29T17:36:10Z</time>
      </trkpt>
      <trkpt lat="47.96211" lon="7.30559">
        <ele>248.98132</ele>
        <time>2017-03-29T17:36:16Z</time>
      </trkpt>
      <trkpt lat="47.96211" lon="7.30559">
        <ele>248.87532</ele>
        <time>2017-03-29T17:36:21Z</time>
      </trkpt>
      <trkpt lat="47.96211" lon="7.30559">
        <ele>248.77165</ele>
        <time>2017-03-29T17:36:26Z</time>
      </trkpt>
      <trkpt lat="47.96211" lon="7.30559">
        <ele>248.7562</ele>
        <time>2017-03-29T17:36:32Z</time>
      </trkpt>
      <trkpt lat="47.96211" lon="7.30559">
        <ele>248.79784</ele>
        <time>2017-03-29T17:36:37Z</time>
      </trkpt>
      <trkpt lat="47.96211" lon="7.30559">
        <ele>248.7933</ele>
        <time>2017-03-29T17:36:43Z</time>
      </trkpt>
      <trkpt lat="47.96211" lon="7.30559">
        <ele>248.79352</ele>
        <time>2017-03-29T17:36:48Z</time>
      </trkpt>
      <trkpt lat="47.96211" lon="7.30559">
        <ele>248.79369</ele>
        <time>2017-03-29T17:36:54Z</time>
      </trkpt>
      <trkpt lat="47.96211" lon="7.30559">
        <ele>248.81897</ele>
        <time>2017-03-29T17:36:59Z</time>
      </trkpt>
      <trkpt lat="47.96211" lon="7.30559">
        <ele>248.98582</ele>
        <time>2017-03-29T17:37:04Z</time>
      </trkpt>
      <trkpt lat="47.96211" lon="7.30559">
        <ele>249.23146</ele>
        <time>2017-03-29T17:37:10Z</time>
      </trkpt>
      <trkpt lat="47.96207" lon="7.30576">
        <ele>249.68744</ele>
        <time>2017-03-29T17:37:16Z</time>
      </trkpt>
      <trkpt lat="47.96209" lon="7.30592">
        <ele>249.94505</ele>
        <time>2017-03-29T17:37:22Z</time>
      </trkpt>
      <trkpt lat="47.96206" lon="7.30594">
        <ele>250.15642</ele>
        <time>2017-03-29T17:37:27Z</time>
      </trkpt>
      <trkpt lat="47.96205" lon="7.30594">
        <ele>250.13086</ele>
        <time>2017-03-29T17:37:32Z</time>
      </trkpt>
      <trkpt lat="47.96205" lon="7.30594">
        <ele>250.39514</ele>
        <time>2017-03-29T17:37:38Z</time>
      </trkpt>
      <trkpt lat="47.96205" lon="7.30594">
        <ele>250.42787</ele>
        <time>2017-03-29T17:37:44Z</time>
      </trkpt>
      <trkpt lat="47.96205" lon="7.30594">
        <ele>250.4064</ele>
        <time>2017-03-29T17:37:49Z</time>
      </trkpt>
      <trkpt lat="47.96204" lon="7.30594">
        <ele>250.31535</ele>
        <time>2017-03-29T17:37:54Z</time>
      </trkpt>
      <trkpt lat="47.96204" lon="7.30594">
        <ele>250.36542</ele>
        <time>2017-03-29T17:37:59Z</time>
      </trkpt>
      <trkpt lat="47.96203" lon="7.30593">
        <ele>251.57967</ele>
        <time>2017-03-29T17:38:05Z</time>
      </trkpt>
      <trkpt lat="47.96205" lon="7.30595">
        <ele>252.02203</ele>
        <time>2017-03-29T17:38:11Z</time>
      </trkpt>
      <trkpt lat="47.96206" lon="7.30597">
        <ele>252.05284</ele>
        <time>2017-03-29T17:38:17Z</time>
      </trkpt>
      <trkpt lat="47.96207" lon="7.30598">
        <ele>252.07559</ele>
        <time>2017-03-29T17:38:22Z</time>
      </trkpt>
      <trkpt lat="47.96205" lon="7.30598">
        <ele>252.90996</ele>
        <time>2017-03-29T17:38:28Z</time>
      </trkpt>
      <trkpt lat="47.96203" lon="7.30594">
        <ele>254.39407</ele>
        <time>2017-03-29T17:38:33Z</time>
      </trkpt>
      <trkpt lat="47.96202" lon="7.30596">
        <ele>255.12794</ele>
        <time>2017-03-29T17:38:39Z</time>
      </trkpt>
      <trkpt lat="47.96201" lon="7.30594">
        <ele>255.473</ele>
        <time>2017-03-29T17:38:45Z</time>
      </trkpt>
      <trkpt lat="47.96202" lon="7.30591">
        <ele>256.19412</ele>
        <time>2017-03-29T17:38:50Z</time>
      </trkpt>
      <trkpt lat="47.962" lon="7.30588">
        <ele>257.71188</ele>
        <time>2017-03-29T17:38:56Z</time>
      </trkpt>
      <trkpt lat="47.96201" lon="7.30584">
        <ele>258.4426</ele>
        <time>2017-03-29T17:39:02Z</time>
      </trkpt>
      <trkpt lat="47.962" lon="7.30582">
        <ele>258.9096</ele>
        <time>2017-03-29T17:39:07Z</time>
      </trkpt>
      <trkpt lat="47.962" lon="7.30585">
        <ele>259.2639</ele>
        <time>2017-03-29T17:39:12Z</time>
      </trkpt>
      <trkpt lat="47.962" lon="7.30588">
        <ele>260.10968</ele>
        <time>2017-03-29T17:39:18Z</time>
      </trkpt>
      <trkpt lat="47.96198" lon="7.30588">
        <ele>261.26974</ele>
        <time>2017-03-29T17:39:24Z</time>
      </trkpt>
      <trkpt lat="47.96198" lon="7.30592">
        <ele>261.91022</ele>
        <time>2017-03-29T17:39:30Z</time>
      </trkpt>
      <trkpt lat="47.96197" lon="7.30592">
        <ele>261.90353</ele>
        <time>2017-03-29T17:39:36Z</time>
      </trkpt>
      <trkpt lat="47.96199" lon="7.30594">
        <ele>261.78296</ele>
        <time>2017-03-29T17:39:41Z</time>
      </trkpt>
      <trkpt lat="47.96197" lon="7.30586">
        <ele>261.02454</ele>
        <time>2017-03-29T17:39:47Z</time>
      </trkpt>
      <trkpt lat="47.96194" lon="7.30578">
        <ele>259.7893</ele>
        <time>2017-03-29T17:39:52Z</time>
      </trkpt>
      <trkpt lat="47.96194" lon="7.30565">
        <ele>258.89224</ele>
        <time>2017-03-29T17:39:57Z</time>
      </trkpt>
      <trkpt lat="47.96201" lon="7.30566">
        <ele>258.79987</ele>
        <time>2017-03-29T17:40:03Z</time>
      </trkpt>
      <trkpt lat="47.96208" lon="7.30565">
        <ele>260.09903</ele>
        <time>2017-03-29T17:40:08Z</time>
      </trkpt>
      <trkpt lat="47.96208" lon="7.30566">
        <ele>261.44925</ele>
        <time>2017-03-29T17:40:14Z</time>
      </trkpt>
      <trkpt lat="47.96208" lon="7.30572">
        <ele>262.08075</ele>
        <time>2017-03-29T17:40:20Z</time>
      </trkpt>
      <trkpt lat="47.96211" lon="7.30586">
        <ele>262.03055</ele>
        <time>2017-03-29T17:40:26Z</time>
      </trkpt>
      <trkpt lat="47.96205" lon="7.30595">
        <ele>262.1894</ele>
        <time>2017-03-29T17:40:32Z</time>
      </trkpt>
      <trkpt lat="47.96199" lon="7.30595">
        <ele>262.02835</ele>
        <time>2017-03-29T17:40:37Z</time>
      </trkpt>
      <trkpt lat="47.96203" lon="7.30597">
        <ele>260.69058</ele>
        <time>2017-03-29T17:40:43Z</time>
      </trkpt>
      <trkpt lat="47.96207" lon="7.30589">
        <ele>259.4389</ele>
        <time>2017-03-29T17:40:48Z</time>
      </trkpt>
      <trkpt lat="47.96207" lon="7.30583">
        <ele>258.24814</ele>
        <time>2017-03-29T17:40:53Z</time>
      </trkpt>
      <trkpt lat="47.96204" lon="7.30594">
        <ele>256.37027</ele>
        <time>2017-03-29T17:40:59Z</time>
      </trkpt>
      <trkpt lat="47.96198" lon="7.30594">
        <ele>255.51729</ele>
        <time>2017-03-29T17:41:04Z</time>
      </trkpt>
      <trkpt lat="47.96198" lon="7.30594">
        <ele>255.26614</ele>
        <time>2017-03-29T17:41:10Z</time>
      </trkpt>
      <trkpt lat="47.96198" lon="7.30589">
        <ele>255.05624</ele>
        <time>2017-03-29T17:41:16Z</time>
      </trkpt>
      <trkpt lat="47.96198" lon="7.30589">
        <ele>254.67578</ele>
        <time>2017-03-29T17:41:21Z</time>
      </trkpt>
      <trkpt lat="47.96199" lon="7.30591">
        <ele>254.25381</ele>
        <time>2017-03-29T17:41:27Z</time>
      </trkpt>
      <trkpt lat="47.96202" lon="7.30599">
        <ele>253.82545</ele>
        <time>2017-03-29T17:41:32Z</time>
      </trkpt>
      <trkpt lat="47.96207" lon="7.30589">
        <ele>252.59398</ele>
        <time>2017-03-29T17:41:37Z</time>
      </trkpt>
      <trkpt lat="47.96206" lon="7.30573">
        <ele>251.25262</ele>
        <time>2017-03-29T17:41:43Z</time>
      </trkpt>
      <trkpt lat="47.96205" lon="7.30562">
        <ele>250.00307</ele>
        <time>2017-03-29T17:41:49Z</time>
      </trkpt>
      <trkpt lat="47.96207" lon="7.30549">
        <ele>249.25775</ele>
        <time>2017-03-29T17:41:55Z</time>
      </trkpt>
      <trkpt lat="47.96206" lon="7.30538">
        <ele>249.1407</ele>
        <time>2017-03-29T17:42:00Z</time>
      </trkpt>
      <trkpt lat="47.96204" lon="7.30532">
        <ele>249.3896</ele>
        <time>2017-03-29T17:42:06Z</time>
      </trkpt>
      <trkpt lat="47.96203" lon="7.30532">
        <ele>249.73518</ele>
        <time>2017-03-29T17:42:11Z</time>
      </trkpt>
      <trkpt lat="47.96203" lon="7.30533">
        <ele>250.41515</ele>
        <time>2017-03-29T17:42:17Z</time>
      </trkpt>
      <trkpt lat="47.96204" lon="7.30534">
        <ele>250.76964</ele>
        <time>2017-03-29T17:42:22Z</time>
      </trkpt>
      <trkpt lat="47.96204" lon="7.30538">
        <ele>250.43266</ele>
        <time>2017-03-29T17:42:28Z</time>
      </trkpt>
      <trkpt lat="47.96204" lon="7.30538">
        <ele>249.48546</ele>
        <time>2017-03-29T17:42:33Z</time>
      </trkpt>
      <trkpt lat="47.96204" lon="7.30538">
        <ele>248.62888</ele>
        <time>2017-03-29T17:42:39Z</time>
      </trkpt>
      <trkpt lat="47.96197" lon="7.30543">
        <ele>248.47562</ele>
        <time>2017-03-29T17:42:45Z</time>
      </trkpt>
      <trkpt lat="47.96194" lon="7.30546">
        <ele>248.17244</ele>
        <time>2017-03-29T17:42:51Z</time>
      </trkpt>
      <trkpt lat="47.96191" lon="7.30545">
        <ele>247.63356</ele>
        <time>2017-03-29T17:42:56Z</time>
      </trkpt>
      <trkpt lat="47.96191" lon="7.30545">
        <ele>247.38156</ele>
        <time>2017-03-29T17:43:01Z</time>
      </trkpt>
      <trkpt lat="47.96192" lon="7.30545">
        <ele>247.42703</ele>
        <time>2017-03-29T17:43:07Z</time>
      </trkpt>
      <trkpt lat="47.96192" lon="7.30545">
        <ele>247.69682</ele>
        <time>2017-03-29T17:43:13Z</time>
      </trkpt>
      <trkpt lat="47.96192" lon="7.30545">
        <ele>248.12721</ele>
        <time>2017-03-29T17:43:19Z</time>
      </trkpt>
      <trkpt lat="47.96192" lon="7.30545">
        <ele>249.20316</ele>
        <time>2017-03-29T17:43:25Z</time>
      </trkpt>
      <trkpt lat="47.962" lon="7.30533">
        <ele>249.45007</ele>
        <time>2017-03-29T17:43:30Z</time>
      </trkpt>
      <trkpt lat="47.962" lon="7.30533">
        <ele>249.58205</ele>
        <time>2017-03-29T17:43:36Z</time>
      </trkpt>
      <trkpt lat="47.962" lon="7.30533">
        <ele>249.7206</ele>
        <time>2017-03-29T17:43:45Z</time>
      </trkpt>
      <trkpt lat="47.962" lon="7.30533">
        <ele>249.70384</ele>
        <time>2017-03-29T17:43:50Z</time>
      </trkpt>
      <trkpt lat="47.962" lon="7.30533">
        <ele>249.64392</ele>
        <time>2017-03-29T17:43:56Z</time>
      </trkpt>
      <trkpt lat="47.962" lon="7.30533">
        <ele>249.35556</ele>
        <time>2017-03-29T17:44:02Z</time>
      </trkpt>
      <trkpt lat="47.962" lon="7.30533">
        <ele>249.04982</ele>
        <time>2017-03-29T17:44:08Z</time>
      </trkpt>
      <trkpt lat="47.962" lon="7.30533">
        <ele>248.73558</ele>
        <time>2017-03-29T17:44:13Z</time>
      </trkpt>
      <trkpt lat="47.962" lon="7.30533">
        <ele>248.20732</ele>
        <time>2017-03-29T17:44:19Z</time>
      </trkpt>
      <trkpt lat="47.962" lon="7.30533">
        <ele>247.70215</ele>
        <time>2017-03-29T17:44:24Z</time>
      </trkpt>
      <trkpt lat="47.96207" lon="7.30538">
        <ele>246.5895</ele>
        <time>2017-03-29T17:44:30Z</time>
      </trkpt>
      <trkpt lat="47.96207" lon="7.30538">
        <ele>246.57892</ele>
        <time>2017-03-29T17:44:36Z</time>
      </trkpt>
      <trkpt lat="47.96198" lon="7.3054">
        <ele>246.57037</ele>
        <time>2017-03-29T17:44:42Z</time>
      </trkpt>
      <trkpt lat="47.96195" lon="7.30539">
        <ele>246.51233</ele>
        <time>2017-03-29T17:44:47Z</time>
      </trkpt>
      <trkpt lat="47.96198" lon="7.30529">
        <ele>246.05168</ele>
        <time>2017-03-29T17:44:53Z</time>
      </trkpt>
      <trkpt lat="47.96198" lon="7.30529">
        <ele>246.10089</ele>
        <time>2017-03-29T17:44:58Z</time>
      </trkpt>
      <trkpt lat="47.96198" lon="7.30529">
        <ele>246.20602</ele>
        <time>2017-03-29T17:45:04Z</time>
      </trkpt>
      <trkpt lat="47.96195" lon="7.30527">
        <ele>246.33653</ele>
        <time>2017-03-29T17:45:10Z</time>
      </trkpt>
      <trkpt lat="47.96195" lon="7.30527">
        <ele>246.39098</ele>
        <time>2017-03-29T17:45:15Z</time>
      </trkpt>
    </trkseg>
  </trk>
</gpx>